<?xml version="1.0" encoding="UTF-8" standalone="no" ?>
<gpx xmlns="http://www.topografix.com/GPX/1/1" xmlns:xsi="http://www.w3.org/2001/XMLSchema-instance" xsi:schemaLocation="http://www.topografix.com/GPX/1/1 http://www.topografix.com/GPX/1/1/gpx.xsd" version="1.1" creator="VisuGPX - https://www.visugpx.com">
  <metadata>
    <name>marche guewenheim</name>
    <desc><![CDATA[marche pop guewenheim2015
]]></desc>
  </metadata>
  <trk>
    <name><![CDATA[marche guewenheim_1]]></name>
    <trkseg>
      <trkpt lat="47.74894" lon="7.0919">
        <ele>333.8</ele>
        <time>2015-11-15T11:43:32Z</time>
      </trkpt>
      <trkpt lat="47.74894" lon="7.0919">
        <ele>399</ele>
        <time>2015-11-15T11:43:35Z</time>
      </trkpt>
      <trkpt lat="47.74897" lon="7.0922">
        <ele>385</ele>
        <time>2015-11-15T11:44:10Z</time>
      </trkpt>
      <trkpt lat="47.74907" lon="7.0923">
        <ele>385</ele>
        <time>2015-11-15T11:44:17Z</time>
      </trkpt>
      <trkpt lat="47.74917" lon="7.09256">
        <ele>384</ele>
        <time>2015-11-15T11:44:34Z</time>
      </trkpt>
      <trkpt lat="47.74935" lon="7.09277">
        <ele>381</ele>
        <time>2015-11-15T11:44:52Z</time>
      </trkpt>
      <trkpt lat="47.74952" lon="7.09295">
        <ele>382</ele>
        <time>2015-11-15T11:45:08Z</time>
      </trkpt>
      <trkpt lat="47.74965" lon="7.09305">
        <ele>383</ele>
        <time>2015-11-15T11:45:18Z</time>
      </trkpt>
      <trkpt lat="47.74982" lon="7.0932">
        <ele>384</ele>
        <time>2015-11-15T11:45:34Z</time>
      </trkpt>
      <trkpt lat="47.75007" lon="7.09326">
        <ele>382</ele>
        <time>2015-11-15T11:45:52Z</time>
      </trkpt>
      <trkpt lat="47.7503" lon="7.09329">
        <ele>385</ele>
        <time>2015-11-15T11:46:09Z</time>
      </trkpt>
      <trkpt lat="47.75053" lon="7.09322">
        <ele>386</ele>
        <time>2015-11-15T11:46:29Z</time>
      </trkpt>
      <trkpt lat="47.75072" lon="7.09311">
        <ele>385</ele>
        <time>2015-11-15T11:46:46Z</time>
      </trkpt>
      <trkpt lat="47.75085" lon="7.09318">
        <ele>385</ele>
        <time>2015-11-15T11:47:03Z</time>
      </trkpt>
      <trkpt lat="47.75088" lon="7.09324">
        <ele>381</ele>
        <time>2015-11-15T11:47:11Z</time>
      </trkpt>
      <trkpt lat="47.75088" lon="7.09324">
        <ele>333</ele>
        <time>2015-11-15T11:47:18Z</time>
      </trkpt>
      <trkpt lat="47.75088" lon="7.09324">
        <ele>333</ele>
        <time>2015-11-15T11:47:24Z</time>
      </trkpt>
      <trkpt lat="47.75098" lon="7.09312">
        <ele>383</ele>
        <time>2015-11-15T11:47:24Z</time>
      </trkpt>
      <trkpt lat="47.75081" lon="7.09338">
        <ele>377</ele>
        <time>2015-11-15T11:47:28Z</time>
      </trkpt>
      <trkpt lat="47.75081" lon="7.09338">
        <ele>333</ele>
        <time>2015-11-15T11:47:33Z</time>
      </trkpt>
      <trkpt lat="47.75081" lon="7.09338">
        <ele>333</ele>
        <time>2015-11-15T11:48:03Z</time>
      </trkpt>
      <trkpt lat="47.75092" lon="7.09297">
        <ele>383</ele>
        <time>2015-11-15T11:48:03Z</time>
      </trkpt>
      <trkpt lat="47.75092" lon="7.09297">
        <ele>383</ele>
        <time>2015-11-15T11:48:08Z</time>
      </trkpt>
      <trkpt lat="47.75092" lon="7.09297">
        <ele>333</ele>
        <time>2015-11-15T11:48:08Z</time>
      </trkpt>
      <trkpt lat="47.75092" lon="7.09297">
        <ele>333</ele>
        <time>2015-11-15T11:48:14Z</time>
      </trkpt>
      <trkpt lat="47.75095" lon="7.09284">
        <ele>383</ele>
        <time>2015-11-15T11:48:14Z</time>
      </trkpt>
      <trkpt lat="47.7511" lon="7.09268">
        <ele>381</ele>
        <time>2015-11-15T11:48:30Z</time>
      </trkpt>
      <trkpt lat="47.75124" lon="7.09248">
        <ele>382</ele>
        <time>2015-11-15T11:48:46Z</time>
      </trkpt>
      <trkpt lat="47.75142" lon="7.09228">
        <ele>382</ele>
        <time>2015-11-15T11:49:03Z</time>
      </trkpt>
      <trkpt lat="47.75158" lon="7.09219">
        <ele>383</ele>
        <time>2015-11-15T11:49:17Z</time>
      </trkpt>
      <trkpt lat="47.7517" lon="7.09235">
        <ele>386</ele>
        <time>2015-11-15T11:49:31Z</time>
      </trkpt>
      <trkpt lat="47.75191" lon="7.09242">
        <ele>389</ele>
        <time>2015-11-15T11:49:48Z</time>
      </trkpt>
      <trkpt lat="47.75208" lon="7.09252">
        <ele>392</ele>
        <time>2015-11-15T11:50:02Z</time>
      </trkpt>
      <trkpt lat="47.75218" lon="7.0926">
        <ele>393</ele>
        <time>2015-11-15T11:50:12Z</time>
      </trkpt>
      <trkpt lat="47.75218" lon="7.0926">
        <ele>333</ele>
        <time>2015-11-15T11:50:19Z</time>
      </trkpt>
      <trkpt lat="47.75218" lon="7.0926">
        <ele>333</ele>
        <time>2015-11-15T11:50:24Z</time>
      </trkpt>
      <trkpt lat="47.75223" lon="7.09264">
        <ele>391</ele>
        <time>2015-11-15T11:50:24Z</time>
      </trkpt>
      <trkpt lat="47.75231" lon="7.09279">
        <ele>389</ele>
        <time>2015-11-15T11:50:34Z</time>
      </trkpt>
      <trkpt lat="47.75258" lon="7.09285">
        <ele>384</ele>
        <time>2015-11-15T11:50:48Z</time>
      </trkpt>
      <trkpt lat="47.75268" lon="7.09276">
        <ele>383</ele>
        <time>2015-11-15T11:51:02Z</time>
      </trkpt>
      <trkpt lat="47.75275" lon="7.09265">
        <ele>384</ele>
        <time>2015-11-15T11:51:10Z</time>
      </trkpt>
      <trkpt lat="47.75275" lon="7.09265">
        <ele>333</ele>
        <time>2015-11-15T11:51:18Z</time>
      </trkpt>
      <trkpt lat="47.75275" lon="7.09265">
        <ele>333</ele>
        <time>2015-11-15T11:51:25Z</time>
      </trkpt>
      <trkpt lat="47.7528" lon="7.09287">
        <ele>385</ele>
        <time>2015-11-15T11:51:25Z</time>
      </trkpt>
      <trkpt lat="47.75296" lon="7.09304">
        <ele>386</ele>
        <time>2015-11-15T11:51:42Z</time>
      </trkpt>
      <trkpt lat="47.7532" lon="7.09309">
        <ele>386</ele>
        <time>2015-11-15T11:51:58Z</time>
      </trkpt>
      <trkpt lat="47.75341" lon="7.09312">
        <ele>383</ele>
        <time>2015-11-15T11:52:15Z</time>
      </trkpt>
      <trkpt lat="47.75364" lon="7.09318">
        <ele>384</ele>
        <time>2015-11-15T11:52:33Z</time>
      </trkpt>
      <trkpt lat="47.75379" lon="7.09323">
        <ele>382</ele>
        <time>2015-11-15T11:52:45Z</time>
      </trkpt>
      <trkpt lat="47.75396" lon="7.09327">
        <ele>382</ele>
        <time>2015-11-15T11:52:59Z</time>
      </trkpt>
      <trkpt lat="47.75404" lon="7.09336">
        <ele>380</ele>
        <time>2015-11-15T11:53:09Z</time>
      </trkpt>
      <trkpt lat="47.7542" lon="7.0934">
        <ele>382</ele>
        <time>2015-11-15T11:53:22Z</time>
      </trkpt>
      <trkpt lat="47.75433" lon="7.09347">
        <ele>384</ele>
        <time>2015-11-15T11:53:34Z</time>
      </trkpt>
      <trkpt lat="47.75448" lon="7.0935">
        <ele>386</ele>
        <time>2015-11-15T11:53:43Z</time>
      </trkpt>
      <trkpt lat="47.75463" lon="7.09352">
        <ele>387</ele>
        <time>2015-11-15T11:53:54Z</time>
      </trkpt>
      <trkpt lat="47.7547" lon="7.09328">
        <ele>386</ele>
        <time>2015-11-15T11:54:10Z</time>
      </trkpt>
      <trkpt lat="47.75477" lon="7.09304">
        <ele>383</ele>
        <time>2015-11-15T11:54:26Z</time>
      </trkpt>
      <trkpt lat="47.7548" lon="7.09286">
        <ele>378</ele>
        <time>2015-11-15T11:54:40Z</time>
      </trkpt>
      <trkpt lat="47.75482" lon="7.0925">
        <ele>378</ele>
        <time>2015-11-15T11:54:57Z</time>
      </trkpt>
      <trkpt lat="47.75482" lon="7.09238">
        <ele>377</ele>
        <time>2015-11-15T11:55:04Z</time>
      </trkpt>
      <trkpt lat="47.75479" lon="7.09222">
        <ele>377</ele>
        <time>2015-11-15T11:55:12Z</time>
      </trkpt>
      <trkpt lat="47.75474" lon="7.09189">
        <ele>380</ele>
        <time>2015-11-15T11:55:27Z</time>
      </trkpt>
      <trkpt lat="47.75474" lon="7.09167">
        <ele>380</ele>
        <time>2015-11-15T11:55:39Z</time>
      </trkpt>
      <trkpt lat="47.75474" lon="7.09144">
        <ele>382</ele>
        <time>2015-11-15T11:55:51Z</time>
      </trkpt>
      <trkpt lat="47.75475" lon="7.09115">
        <ele>382</ele>
        <time>2015-11-15T11:56:07Z</time>
      </trkpt>
      <trkpt lat="47.75478" lon="7.09099">
        <ele>380</ele>
        <time>2015-11-15T11:56:17Z</time>
      </trkpt>
      <trkpt lat="47.75495" lon="7.09083">
        <ele>381</ele>
        <time>2015-11-15T11:56:33Z</time>
      </trkpt>
      <trkpt lat="47.75514" lon="7.09084">
        <ele>382</ele>
        <time>2015-11-15T11:56:46Z</time>
      </trkpt>
      <trkpt lat="47.75524" lon="7.09083">
        <ele>382</ele>
        <time>2015-11-15T11:56:55Z</time>
      </trkpt>
      <trkpt lat="47.75547" lon="7.09075">
        <ele>386</ele>
        <time>2015-11-15T11:57:13Z</time>
      </trkpt>
      <trkpt lat="47.75564" lon="7.09071">
        <ele>386</ele>
        <time>2015-11-15T11:57:27Z</time>
      </trkpt>
      <trkpt lat="47.75585" lon="7.09063">
        <ele>385</ele>
        <time>2015-11-15T11:57:43Z</time>
      </trkpt>
      <trkpt lat="47.75601" lon="7.0906">
        <ele>389</ele>
        <time>2015-11-15T11:57:55Z</time>
      </trkpt>
      <trkpt lat="47.75616" lon="7.09052">
        <ele>386</ele>
        <time>2015-11-15T11:58:08Z</time>
      </trkpt>
      <trkpt lat="47.75612" lon="7.0903">
        <ele>380</ele>
        <time>2015-11-15T11:58:22Z</time>
      </trkpt>
      <trkpt lat="47.75603" lon="7.09006">
        <ele>379</ele>
        <time>2015-11-15T11:58:37Z</time>
      </trkpt>
      <trkpt lat="47.75598" lon="7.08979">
        <ele>377</ele>
        <time>2015-11-15T11:58:52Z</time>
      </trkpt>
      <trkpt lat="47.75592" lon="7.08957">
        <ele>379</ele>
        <time>2015-11-15T11:59:04Z</time>
      </trkpt>
      <trkpt lat="47.75586" lon="7.08936">
        <ele>379</ele>
        <time>2015-11-15T11:59:14Z</time>
      </trkpt>
      <trkpt lat="47.75584" lon="7.08927">
        <ele>379</ele>
        <time>2015-11-15T11:59:18Z</time>
      </trkpt>
      <trkpt lat="47.75584" lon="7.08927">
        <ele>332</ele>
        <time>2015-11-15T11:59:23Z</time>
      </trkpt>
      <trkpt lat="47.75584" lon="7.08927">
        <ele>332</ele>
        <time>2015-11-15T11:59:27Z</time>
      </trkpt>
      <trkpt lat="47.75583" lon="7.08913">
        <ele>377</ele>
        <time>2015-11-15T11:59:27Z</time>
      </trkpt>
      <trkpt lat="47.7558" lon="7.08891">
        <ele>378</ele>
        <time>2015-11-15T11:59:42Z</time>
      </trkpt>
      <trkpt lat="47.75574" lon="7.08868">
        <ele>377</ele>
        <time>2015-11-15T11:59:56Z</time>
      </trkpt>
      <trkpt lat="47.75566" lon="7.0884">
        <ele>377</ele>
        <time>2015-11-15T12:00:09Z</time>
      </trkpt>
      <trkpt lat="47.75563" lon="7.0882">
        <ele>376</ele>
        <time>2015-11-15T12:00:21Z</time>
      </trkpt>
      <trkpt lat="47.75559" lon="7.08791">
        <ele>375</ele>
        <time>2015-11-15T12:00:39Z</time>
      </trkpt>
      <trkpt lat="47.75555" lon="7.08777">
        <ele>377</ele>
        <time>2015-11-15T12:00:47Z</time>
      </trkpt>
      <trkpt lat="47.75547" lon="7.08752">
        <ele>378</ele>
        <time>2015-11-15T12:01:01Z</time>
      </trkpt>
      <trkpt lat="47.75543" lon="7.08729">
        <ele>378</ele>
        <time>2015-11-15T12:01:13Z</time>
      </trkpt>
      <trkpt lat="47.75544" lon="7.08704">
        <ele>379</ele>
        <time>2015-11-15T12:01:25Z</time>
      </trkpt>
      <trkpt lat="47.75546" lon="7.08679">
        <ele>381</ele>
        <time>2015-11-15T12:01:39Z</time>
      </trkpt>
      <trkpt lat="47.75549" lon="7.08657">
        <ele>379</ele>
        <time>2015-11-15T12:01:51Z</time>
      </trkpt>
      <trkpt lat="47.75552" lon="7.08632">
        <ele>380</ele>
        <time>2015-11-15T12:02:04Z</time>
      </trkpt>
      <trkpt lat="47.75556" lon="7.08598">
        <ele>381</ele>
        <time>2015-11-15T12:02:21Z</time>
      </trkpt>
      <trkpt lat="47.75564" lon="7.08574">
        <ele>383</ele>
        <time>2015-11-15T12:02:37Z</time>
      </trkpt>
      <trkpt lat="47.75571" lon="7.08551">
        <ele>384</ele>
        <time>2015-11-15T12:02:52Z</time>
      </trkpt>
      <trkpt lat="47.75579" lon="7.08524">
        <ele>385</ele>
        <time>2015-11-15T12:03:08Z</time>
      </trkpt>
      <trkpt lat="47.75585" lon="7.08498">
        <ele>385</ele>
        <time>2015-11-15T12:03:24Z</time>
      </trkpt>
      <trkpt lat="47.7559" lon="7.08477">
        <ele>385</ele>
        <time>2015-11-15T12:03:37Z</time>
      </trkpt>
      <trkpt lat="47.75598" lon="7.08443">
        <ele>386</ele>
        <time>2015-11-15T12:03:56Z</time>
      </trkpt>
      <trkpt lat="47.75603" lon="7.08425">
        <ele>385</ele>
        <time>2015-11-15T12:04:07Z</time>
      </trkpt>
      <trkpt lat="47.75609" lon="7.08395">
        <ele>384</ele>
        <time>2015-11-15T12:04:24Z</time>
      </trkpt>
      <trkpt lat="47.75605" lon="7.08367">
        <ele>382</ele>
        <time>2015-11-15T12:04:41Z</time>
      </trkpt>
      <trkpt lat="47.75605" lon="7.08341">
        <ele>383</ele>
        <time>2015-11-15T12:04:55Z</time>
      </trkpt>
      <trkpt lat="47.75608" lon="7.08309">
        <ele>383</ele>
        <time>2015-11-15T12:05:13Z</time>
      </trkpt>
      <trkpt lat="47.75613" lon="7.08275">
        <ele>383</ele>
        <time>2015-11-15T12:05:31Z</time>
      </trkpt>
      <trkpt lat="47.75618" lon="7.08243">
        <ele>381</ele>
        <time>2015-11-15T12:05:50Z</time>
      </trkpt>
      <trkpt lat="47.75622" lon="7.08219">
        <ele>384</ele>
        <time>2015-11-15T12:06:02Z</time>
      </trkpt>
      <trkpt lat="47.75624" lon="7.08205">
        <ele>385</ele>
        <time>2015-11-15T12:06:10Z</time>
      </trkpt>
      <trkpt lat="47.75629" lon="7.08176">
        <ele>384</ele>
        <time>2015-11-15T12:06:25Z</time>
      </trkpt>
      <trkpt lat="47.75634" lon="7.08153">
        <ele>386</ele>
        <time>2015-11-15T12:06:38Z</time>
      </trkpt>
      <trkpt lat="47.75638" lon="7.08132">
        <ele>389</ele>
        <time>2015-11-15T12:06:53Z</time>
      </trkpt>
      <trkpt lat="47.75641" lon="7.08127">
        <ele>388</ele>
        <time>2015-11-15T12:06:59Z</time>
      </trkpt>
      <trkpt lat="47.75641" lon="7.08127">
        <ele>337.4</ele>
        <time>2015-11-15T12:07:06Z</time>
      </trkpt>
      <trkpt lat="47.75641" lon="7.08127">
        <ele>337.4</ele>
        <time>2015-11-15T12:07:12Z</time>
      </trkpt>
      <trkpt lat="47.75649" lon="7.08117">
        <ele>387</ele>
        <time>2015-11-15T12:07:12Z</time>
      </trkpt>
      <trkpt lat="47.75659" lon="7.08092">
        <ele>385</ele>
        <time>2015-11-15T12:07:28Z</time>
      </trkpt>
      <trkpt lat="47.75673" lon="7.08069">
        <ele>388</ele>
        <time>2015-11-15T12:07:45Z</time>
      </trkpt>
      <trkpt lat="47.75687" lon="7.08047">
        <ele>388</ele>
        <time>2015-11-15T12:08:03Z</time>
      </trkpt>
      <trkpt lat="47.75698" lon="7.08024">
        <ele>389</ele>
        <time>2015-11-15T12:08:17Z</time>
      </trkpt>
      <trkpt lat="47.75711" lon="7.08005">
        <ele>389</ele>
        <time>2015-11-15T12:08:33Z</time>
      </trkpt>
      <trkpt lat="47.75722" lon="7.07988">
        <ele>388</ele>
        <time>2015-11-15T12:08:46Z</time>
      </trkpt>
      <trkpt lat="47.75735" lon="7.07967">
        <ele>387</ele>
        <time>2015-11-15T12:09:01Z</time>
      </trkpt>
      <trkpt lat="47.75743" lon="7.0795">
        <ele>388</ele>
        <time>2015-11-15T12:09:13Z</time>
      </trkpt>
      <trkpt lat="47.7575" lon="7.07915">
        <ele>390</ele>
        <time>2015-11-15T12:09:31Z</time>
      </trkpt>
      <trkpt lat="47.75746" lon="7.07893">
        <ele>388</ele>
        <time>2015-11-15T12:09:43Z</time>
      </trkpt>
      <trkpt lat="47.75732" lon="7.0787">
        <ele>387</ele>
        <time>2015-11-15T12:10:00Z</time>
      </trkpt>
      <trkpt lat="47.75718" lon="7.07849">
        <ele>385</ele>
        <time>2015-11-15T12:10:16Z</time>
      </trkpt>
      <trkpt lat="47.75708" lon="7.07822">
        <ele>385</ele>
        <time>2015-11-15T12:10:32Z</time>
      </trkpt>
      <trkpt lat="47.75705" lon="7.07791">
        <ele>387</ele>
        <time>2015-11-15T12:10:49Z</time>
      </trkpt>
      <trkpt lat="47.75702" lon="7.07762">
        <ele>390</ele>
        <time>2015-11-15T12:11:05Z</time>
      </trkpt>
      <trkpt lat="47.75698" lon="7.0774">
        <ele>390</ele>
        <time>2015-11-15T12:11:17Z</time>
      </trkpt>
      <trkpt lat="47.75696" lon="7.07713">
        <ele>391</ele>
        <time>2015-11-15T12:11:31Z</time>
      </trkpt>
      <trkpt lat="47.75698" lon="7.07697">
        <ele>391</ele>
        <time>2015-11-15T12:11:40Z</time>
      </trkpt>
      <trkpt lat="47.75702" lon="7.07662">
        <ele>390</ele>
        <time>2015-11-15T12:11:59Z</time>
      </trkpt>
      <trkpt lat="47.75713" lon="7.07646">
        <ele>386</ele>
        <time>2015-11-15T12:12:14Z</time>
      </trkpt>
      <trkpt lat="47.75723" lon="7.07619">
        <ele>387</ele>
        <time>2015-11-15T12:12:31Z</time>
      </trkpt>
      <trkpt lat="47.75728" lon="7.07601">
        <ele>387</ele>
        <time>2015-11-15T12:12:41Z</time>
      </trkpt>
      <trkpt lat="47.75732" lon="7.0758">
        <ele>387</ele>
        <time>2015-11-15T12:12:53Z</time>
      </trkpt>
      <trkpt lat="47.75738" lon="7.07559">
        <ele>387</ele>
        <time>2015-11-15T12:13:07Z</time>
      </trkpt>
      <trkpt lat="47.75747" lon="7.07536">
        <ele>385</ele>
        <time>2015-11-15T12:13:24Z</time>
      </trkpt>
      <trkpt lat="47.75756" lon="7.07511">
        <ele>384</ele>
        <time>2015-11-15T12:13:40Z</time>
      </trkpt>
      <trkpt lat="47.75766" lon="7.07492">
        <ele>380</ele>
        <time>2015-11-15T12:13:55Z</time>
      </trkpt>
      <trkpt lat="47.75778" lon="7.07461">
        <ele>387</ele>
        <time>2015-11-15T12:14:13Z</time>
      </trkpt>
      <trkpt lat="47.75789" lon="7.0744">
        <ele>393</ele>
        <time>2015-11-15T12:14:29Z</time>
      </trkpt>
      <trkpt lat="47.75795" lon="7.07401">
        <ele>391</ele>
        <time>2015-11-15T12:14:50Z</time>
      </trkpt>
      <trkpt lat="47.75801" lon="7.07374">
        <ele>388</ele>
        <time>2015-11-15T12:15:06Z</time>
      </trkpt>
      <trkpt lat="47.75803" lon="7.07368">
        <ele>389</ele>
        <time>2015-11-15T12:15:10Z</time>
      </trkpt>
      <trkpt lat="47.75803" lon="7.07368">
        <ele>343.6</ele>
        <time>2015-11-15T12:15:15Z</time>
      </trkpt>
      <trkpt lat="47.75803" lon="7.07368">
        <ele>343.6</ele>
        <time>2015-11-15T12:15:46Z</time>
      </trkpt>
      <trkpt lat="47.75811" lon="7.07332">
        <ele>390</ele>
        <time>2015-11-15T12:15:46Z</time>
      </trkpt>
      <trkpt lat="47.75815" lon="7.07308">
        <ele>391</ele>
        <time>2015-11-15T12:15:58Z</time>
      </trkpt>
      <trkpt lat="47.75816" lon="7.0729">
        <ele>391</ele>
        <time>2015-11-15T12:16:08Z</time>
      </trkpt>
      <trkpt lat="47.75815" lon="7.07272">
        <ele>393</ele>
        <time>2015-11-15T12:16:17Z</time>
      </trkpt>
      <trkpt lat="47.7582" lon="7.07251">
        <ele>392</ele>
        <time>2015-11-15T12:16:32Z</time>
      </trkpt>
      <trkpt lat="47.75822" lon="7.0722">
        <ele>392</ele>
        <time>2015-11-15T12:16:53Z</time>
      </trkpt>
      <trkpt lat="47.75824" lon="7.07198">
        <ele>392</ele>
        <time>2015-11-15T12:17:07Z</time>
      </trkpt>
      <trkpt lat="47.75823" lon="7.07176">
        <ele>393</ele>
        <time>2015-11-15T12:17:17Z</time>
      </trkpt>
      <trkpt lat="47.75828" lon="7.07155">
        <ele>394</ele>
        <time>2015-11-15T12:17:31Z</time>
      </trkpt>
      <trkpt lat="47.7583" lon="7.07138">
        <ele>394</ele>
        <time>2015-11-15T12:17:42Z</time>
      </trkpt>
      <trkpt lat="47.75831" lon="7.07116">
        <ele>392</ele>
        <time>2015-11-15T12:17:56Z</time>
      </trkpt>
      <trkpt lat="47.75835" lon="7.07083">
        <ele>393</ele>
        <time>2015-11-15T12:18:13Z</time>
      </trkpt>
      <trkpt lat="47.75837" lon="7.0706">
        <ele>394</ele>
        <time>2015-11-15T12:18:26Z</time>
      </trkpt>
      <trkpt lat="47.75834" lon="7.07034">
        <ele>392</ele>
        <time>2015-11-15T12:18:42Z</time>
      </trkpt>
      <trkpt lat="47.75835" lon="7.07028">
        <ele>393</ele>
        <time>2015-11-15T12:18:47Z</time>
      </trkpt>
      <trkpt lat="47.75835" lon="7.07028">
        <ele>345.8</ele>
        <time>2015-11-15T12:18:54Z</time>
      </trkpt>
      <trkpt lat="47.75835" lon="7.07028">
        <ele>345.8</ele>
        <time>2015-11-15T12:19:00Z</time>
      </trkpt>
      <trkpt lat="47.75835" lon="7.07013">
        <ele>395</ele>
        <time>2015-11-15T12:19:00Z</time>
      </trkpt>
      <trkpt lat="47.75837" lon="7.06993">
        <ele>393</ele>
        <time>2015-11-15T12:19:13Z</time>
      </trkpt>
      <trkpt lat="47.75836" lon="7.06964">
        <ele>394</ele>
        <time>2015-11-15T12:19:27Z</time>
      </trkpt>
      <trkpt lat="47.75836" lon="7.06943">
        <ele>394</ele>
        <time>2015-11-15T12:19:41Z</time>
      </trkpt>
      <trkpt lat="47.75838" lon="7.06917">
        <ele>392</ele>
        <time>2015-11-15T12:19:57Z</time>
      </trkpt>
      <trkpt lat="47.7584" lon="7.06891">
        <ele>393</ele>
        <time>2015-11-15T12:20:15Z</time>
      </trkpt>
      <trkpt lat="47.75842" lon="7.0687">
        <ele>392</ele>
        <time>2015-11-15T12:20:26Z</time>
      </trkpt>
      <trkpt lat="47.75842" lon="7.06865">
        <ele>393</ele>
        <time>2015-11-15T12:20:29Z</time>
      </trkpt>
      <trkpt lat="47.75842" lon="7.06865">
        <ele>345.8</ele>
        <time>2015-11-15T12:20:36Z</time>
      </trkpt>
      <trkpt lat="47.75842" lon="7.06865">
        <ele>345.8</ele>
        <time>2015-11-15T12:20:44Z</time>
      </trkpt>
      <trkpt lat="47.75844" lon="7.06843">
        <ele>394</ele>
        <time>2015-11-15T12:20:44Z</time>
      </trkpt>
      <trkpt lat="47.75842" lon="7.06818">
        <ele>397</ele>
        <time>2015-11-15T12:20:55Z</time>
      </trkpt>
      <trkpt lat="47.75834" lon="7.06802">
        <ele>397</ele>
        <time>2015-11-15T12:21:03Z</time>
      </trkpt>
      <trkpt lat="47.75825" lon="7.06785">
        <ele>397</ele>
        <time>2015-11-15T12:21:17Z</time>
      </trkpt>
      <trkpt lat="47.75824" lon="7.06778">
        <ele>398</ele>
        <time>2015-11-15T12:21:22Z</time>
      </trkpt>
      <trkpt lat="47.75824" lon="7.06778">
        <ele>346.4</ele>
        <time>2015-11-15T12:21:29Z</time>
      </trkpt>
      <trkpt lat="47.75824" lon="7.06778">
        <ele>346.4</ele>
        <time>2015-11-15T12:21:35Z</time>
      </trkpt>
      <trkpt lat="47.75821" lon="7.06762">
        <ele>397</ele>
        <time>2015-11-15T12:21:35Z</time>
      </trkpt>
      <trkpt lat="47.75816" lon="7.06743">
        <ele>395</ele>
        <time>2015-11-15T12:21:46Z</time>
      </trkpt>
      <trkpt lat="47.75808" lon="7.06719">
        <ele>395</ele>
        <time>2015-11-15T12:22:00Z</time>
      </trkpt>
      <trkpt lat="47.75799" lon="7.06693">
        <ele>393</ele>
        <time>2015-11-15T12:22:17Z</time>
      </trkpt>
      <trkpt lat="47.75796" lon="7.06668">
        <ele>392</ele>
        <time>2015-11-15T12:22:34Z</time>
      </trkpt>
      <trkpt lat="47.75796" lon="7.06642">
        <ele>394</ele>
        <time>2015-11-15T12:22:49Z</time>
      </trkpt>
      <trkpt lat="47.75795" lon="7.06619">
        <ele>397</ele>
        <time>2015-11-15T12:23:01Z</time>
      </trkpt>
      <trkpt lat="47.75795" lon="7.06619">
        <ele>347.4</ele>
        <time>2015-11-15T12:23:08Z</time>
      </trkpt>
      <trkpt lat="47.75795" lon="7.06619">
        <ele>347.4</ele>
        <time>2015-11-15T12:23:37Z</time>
      </trkpt>
      <trkpt lat="47.75798" lon="7.0658">
        <ele>396</ele>
        <time>2015-11-15T12:23:37Z</time>
      </trkpt>
      <trkpt lat="47.75799" lon="7.06546">
        <ele>402</ele>
        <time>2015-11-15T12:23:53Z</time>
      </trkpt>
      <trkpt lat="47.75799" lon="7.06533">
        <ele>402</ele>
        <time>2015-11-15T12:24:01Z</time>
      </trkpt>
      <trkpt lat="47.75797" lon="7.0651">
        <ele>402</ele>
        <time>2015-11-15T12:24:16Z</time>
      </trkpt>
      <trkpt lat="47.75797" lon="7.0651">
        <ele>402</ele>
        <time>2015-11-15T12:24:23Z</time>
      </trkpt>
      <trkpt lat="47.75797" lon="7.0651">
        <ele>348.5</ele>
        <time>2015-11-15T12:24:23Z</time>
      </trkpt>
      <trkpt lat="47.75797" lon="7.0651">
        <ele>348.5</ele>
        <time>2015-11-15T12:24:36Z</time>
      </trkpt>
      <trkpt lat="47.75816" lon="7.06513">
        <ele>400</ele>
        <time>2015-11-15T12:24:36Z</time>
      </trkpt>
      <trkpt lat="47.75835" lon="7.0652">
        <ele>400</ele>
        <time>2015-11-15T12:24:53Z</time>
      </trkpt>
      <trkpt lat="47.75847" lon="7.06524">
        <ele>402</ele>
        <time>2015-11-15T12:25:02Z</time>
      </trkpt>
      <trkpt lat="47.75847" lon="7.06524">
        <ele>349.6</ele>
        <time>2015-11-15T12:25:10Z</time>
      </trkpt>
      <trkpt lat="47.75847" lon="7.06524">
        <ele>349.6</ele>
        <time>2015-11-15T12:25:13Z</time>
      </trkpt>
      <trkpt lat="47.75853" lon="7.06523">
        <ele>402</ele>
        <time>2015-11-15T12:25:13Z</time>
      </trkpt>
      <trkpt lat="47.75868" lon="7.06516">
        <ele>400</ele>
        <time>2015-11-15T12:25:28Z</time>
      </trkpt>
      <trkpt lat="47.75883" lon="7.06519">
        <ele>399</ele>
        <time>2015-11-15T12:25:42Z</time>
      </trkpt>
      <trkpt lat="47.75899" lon="7.06522">
        <ele>400</ele>
        <time>2015-11-15T12:25:56Z</time>
      </trkpt>
      <trkpt lat="47.75906" lon="7.06502">
        <ele>397</ele>
        <time>2015-11-15T12:26:11Z</time>
      </trkpt>
      <trkpt lat="47.75911" lon="7.06487">
        <ele>394</ele>
        <time>2015-11-15T12:26:19Z</time>
      </trkpt>
      <trkpt lat="47.75911" lon="7.06487">
        <ele>349.1</ele>
        <time>2015-11-15T12:26:27Z</time>
      </trkpt>
      <trkpt lat="47.75911" lon="7.06487">
        <ele>349.1</ele>
        <time>2015-11-15T12:27:00Z</time>
      </trkpt>
      <trkpt lat="47.75895" lon="7.06454">
        <ele>392</ele>
        <time>2015-11-15T12:27:00Z</time>
      </trkpt>
      <trkpt lat="47.75892" lon="7.06436">
        <ele>395</ele>
        <time>2015-11-15T12:27:08Z</time>
      </trkpt>
      <trkpt lat="47.75892" lon="7.06421">
        <ele>395</ele>
        <time>2015-11-15T12:27:16Z</time>
      </trkpt>
      <trkpt lat="47.75891" lon="7.06402">
        <ele>400</ele>
        <time>2015-11-15T12:27:26Z</time>
      </trkpt>
      <trkpt lat="47.75889" lon="7.06381">
        <ele>400</ele>
        <time>2015-11-15T12:27:42Z</time>
      </trkpt>
      <trkpt lat="47.75889" lon="7.06363">
        <ele>397</ele>
        <time>2015-11-15T12:27:52Z</time>
      </trkpt>
      <trkpt lat="47.75891" lon="7.0634">
        <ele>398</ele>
        <time>2015-11-15T12:28:04Z</time>
      </trkpt>
      <trkpt lat="47.75893" lon="7.06315">
        <ele>399</ele>
        <time>2015-11-15T12:28:21Z</time>
      </trkpt>
      <trkpt lat="47.75896" lon="7.06285">
        <ele>395</ele>
        <time>2015-11-15T12:28:41Z</time>
      </trkpt>
      <trkpt lat="47.75897" lon="7.06259">
        <ele>394</ele>
        <time>2015-11-15T12:28:58Z</time>
      </trkpt>
      <trkpt lat="47.75898" lon="7.06232">
        <ele>395</ele>
        <time>2015-11-15T12:29:12Z</time>
      </trkpt>
      <trkpt lat="47.759" lon="7.06215">
        <ele>393</ele>
        <time>2015-11-15T12:29:21Z</time>
      </trkpt>
      <trkpt lat="47.75909" lon="7.06191">
        <ele>396</ele>
        <time>2015-11-15T12:29:39Z</time>
      </trkpt>
      <trkpt lat="47.75908" lon="7.06184">
        <ele>397</ele>
        <time>2015-11-15T12:29:44Z</time>
      </trkpt>
      <trkpt lat="47.75908" lon="7.06184">
        <ele>349.4</ele>
        <time>2015-11-15T12:29:52Z</time>
      </trkpt>
      <trkpt lat="47.75908" lon="7.06184">
        <ele>349.4</ele>
        <time>2015-11-15T12:30:00Z</time>
      </trkpt>
      <trkpt lat="47.75912" lon="7.06172">
        <ele>393</ele>
        <time>2015-11-15T12:30:00Z</time>
      </trkpt>
      <trkpt lat="47.75915" lon="7.06153">
        <ele>392</ele>
        <time>2015-11-15T12:30:14Z</time>
      </trkpt>
      <trkpt lat="47.75916" lon="7.06126">
        <ele>389</ele>
        <time>2015-11-15T12:30:35Z</time>
      </trkpt>
      <trkpt lat="47.75918" lon="7.061">
        <ele>394</ele>
        <time>2015-11-15T12:30:47Z</time>
      </trkpt>
      <trkpt lat="47.7592" lon="7.06095">
        <ele>394</ele>
        <time>2015-11-15T12:30:51Z</time>
      </trkpt>
      <trkpt lat="47.7592" lon="7.06095">
        <ele>349.5</ele>
        <time>2015-11-15T12:30:58Z</time>
      </trkpt>
      <trkpt lat="47.7592" lon="7.06095">
        <ele>349.5</ele>
        <time>2015-11-15T12:31:01Z</time>
      </trkpt>
      <trkpt lat="47.75919" lon="7.06084">
        <ele>398</ele>
        <time>2015-11-15T12:31:01Z</time>
      </trkpt>
      <trkpt lat="47.75924" lon="7.06063">
        <ele>398</ele>
        <time>2015-11-15T12:31:14Z</time>
      </trkpt>
      <trkpt lat="47.75926" lon="7.06035">
        <ele>397</ele>
        <time>2015-11-15T12:31:30Z</time>
      </trkpt>
      <trkpt lat="47.75928" lon="7.06006">
        <ele>396</ele>
        <time>2015-11-15T12:31:48Z</time>
      </trkpt>
      <trkpt lat="47.75929" lon="7.05995">
        <ele>398</ele>
        <time>2015-11-15T12:31:55Z</time>
      </trkpt>
      <trkpt lat="47.75929" lon="7.05995">
        <ele>349.4</ele>
        <time>2015-11-15T12:32:00Z</time>
      </trkpt>
      <trkpt lat="47.75929" lon="7.05995">
        <ele>349.4</ele>
        <time>2015-11-15T12:32:04Z</time>
      </trkpt>
      <trkpt lat="47.75932" lon="7.05987">
        <ele>396</ele>
        <time>2015-11-15T12:32:04Z</time>
      </trkpt>
      <trkpt lat="47.75934" lon="7.05959">
        <ele>394</ele>
        <time>2015-11-15T12:32:22Z</time>
      </trkpt>
      <trkpt lat="47.75937" lon="7.0594">
        <ele>389</ele>
        <time>2015-11-15T12:32:35Z</time>
      </trkpt>
      <trkpt lat="47.7594" lon="7.05903">
        <ele>391</ele>
        <time>2015-11-15T12:32:54Z</time>
      </trkpt>
      <trkpt lat="47.75946" lon="7.05879">
        <ele>392</ele>
        <time>2015-11-15T12:33:11Z</time>
      </trkpt>
      <trkpt lat="47.75951" lon="7.05857">
        <ele>394</ele>
        <time>2015-11-15T12:33:29Z</time>
      </trkpt>
      <trkpt lat="47.75958" lon="7.05845">
        <ele>397</ele>
        <time>2015-11-15T12:33:40Z</time>
      </trkpt>
      <trkpt lat="47.75958" lon="7.05845">
        <ele>350.4</ele>
        <time>2015-11-15T12:33:48Z</time>
      </trkpt>
      <trkpt lat="47.75958" lon="7.05845">
        <ele>350.4</ele>
        <time>2015-11-15T12:33:54Z</time>
      </trkpt>
      <trkpt lat="47.75963" lon="7.05835">
        <ele>400</ele>
        <time>2015-11-15T12:33:54Z</time>
      </trkpt>
      <trkpt lat="47.75965" lon="7.0581">
        <ele>399</ele>
        <time>2015-11-15T12:34:09Z</time>
      </trkpt>
      <trkpt lat="47.75966" lon="7.05787">
        <ele>402</ele>
        <time>2015-11-15T12:34:24Z</time>
      </trkpt>
      <trkpt lat="47.75968" lon="7.05753">
        <ele>406</ele>
        <time>2015-11-15T12:34:43Z</time>
      </trkpt>
      <trkpt lat="47.75967" lon="7.05734">
        <ele>409</ele>
        <time>2015-11-15T12:34:55Z</time>
      </trkpt>
      <trkpt lat="47.75968" lon="7.05701">
        <ele>406</ele>
        <time>2015-11-15T12:35:14Z</time>
      </trkpt>
      <trkpt lat="47.75968" lon="7.05684">
        <ele>405</ele>
        <time>2015-11-15T12:35:23Z</time>
      </trkpt>
      <trkpt lat="47.75968" lon="7.05677">
        <ele>406</ele>
        <time>2015-11-15T12:35:29Z</time>
      </trkpt>
      <trkpt lat="47.75968" lon="7.05677">
        <ele>350.6</ele>
        <time>2015-11-15T12:35:36Z</time>
      </trkpt>
      <trkpt lat="47.75968" lon="7.05677">
        <ele>350.6</ele>
        <time>2015-11-15T12:35:43Z</time>
      </trkpt>
      <trkpt lat="47.75968" lon="7.05664">
        <ele>409</ele>
        <time>2015-11-15T12:35:43Z</time>
      </trkpt>
      <trkpt lat="47.75973" lon="7.05656">
        <ele>405</ele>
        <time>2015-11-15T12:35:51Z</time>
      </trkpt>
      <trkpt lat="47.75973" lon="7.05656">
        <ele>350.7</ele>
        <time>2015-11-15T12:35:59Z</time>
      </trkpt>
      <trkpt lat="47.75973" lon="7.05656">
        <ele>350.7</ele>
        <time>2015-11-15T12:36:31Z</time>
      </trkpt>
      <trkpt lat="47.75982" lon="7.05636">
        <ele>409</ele>
        <time>2015-11-15T12:36:31Z</time>
      </trkpt>
      <trkpt lat="47.75987" lon="7.05621">
        <ele>410</ele>
        <time>2015-11-15T12:36:50Z</time>
      </trkpt>
      <trkpt lat="47.75991" lon="7.05602">
        <ele>407</ele>
        <time>2015-11-15T12:37:09Z</time>
      </trkpt>
      <trkpt lat="47.75995" lon="7.05581">
        <ele>407</ele>
        <time>2015-11-15T12:37:22Z</time>
      </trkpt>
      <trkpt lat="47.75998" lon="7.05572">
        <ele>408</ele>
        <time>2015-11-15T12:37:27Z</time>
      </trkpt>
      <trkpt lat="47.75998" lon="7.05572">
        <ele>362.6</ele>
        <time>2015-11-15T12:37:34Z</time>
      </trkpt>
      <trkpt lat="47.75998" lon="7.05572">
        <ele>362.6</ele>
        <time>2015-11-15T12:37:40Z</time>
      </trkpt>
      <trkpt lat="47.75999" lon="7.05556">
        <ele>409</ele>
        <time>2015-11-15T12:37:40Z</time>
      </trkpt>
      <trkpt lat="47.76006" lon="7.0553">
        <ele>407</ele>
        <time>2015-11-15T12:37:55Z</time>
      </trkpt>
      <trkpt lat="47.76009" lon="7.05512">
        <ele>406</ele>
        <time>2015-11-15T12:38:08Z</time>
      </trkpt>
      <trkpt lat="47.7601" lon="7.05487">
        <ele>406</ele>
        <time>2015-11-15T12:38:21Z</time>
      </trkpt>
      <trkpt lat="47.7601" lon="7.05487">
        <ele>406</ele>
        <time>2015-11-15T12:38:29Z</time>
      </trkpt>
      <trkpt lat="47.7601" lon="7.05487">
        <ele>358.9</ele>
        <time>2015-11-15T12:38:29Z</time>
      </trkpt>
      <trkpt lat="47.7601" lon="7.05487">
        <ele>358.9</ele>
        <time>2015-11-15T12:39:21Z</time>
      </trkpt>
      <trkpt lat="47.76005" lon="7.05448">
        <ele>412</ele>
        <time>2015-11-15T12:39:21Z</time>
      </trkpt>
      <trkpt lat="47.76006" lon="7.05415">
        <ele>413</ele>
        <time>2015-11-15T12:39:41Z</time>
      </trkpt>
      <trkpt lat="47.76003" lon="7.05389">
        <ele>411</ele>
        <time>2015-11-15T12:39:55Z</time>
      </trkpt>
      <trkpt lat="47.75998" lon="7.0536">
        <ele>412</ele>
        <time>2015-11-15T12:40:12Z</time>
      </trkpt>
      <trkpt lat="47.75991" lon="7.05327">
        <ele>416</ele>
        <time>2015-11-15T12:40:31Z</time>
      </trkpt>
      <trkpt lat="47.75992" lon="7.05312">
        <ele>413</ele>
        <time>2015-11-15T12:40:41Z</time>
      </trkpt>
      <trkpt lat="47.75992" lon="7.05312">
        <ele>357.3</ele>
        <time>2015-11-15T12:40:49Z</time>
      </trkpt>
      <trkpt lat="47.75992" lon="7.05312">
        <ele>357.3</ele>
        <time>2015-11-15T12:40:52Z</time>
      </trkpt>
      <trkpt lat="47.75993" lon="7.05301">
        <ele>412</ele>
        <time>2015-11-15T12:40:52Z</time>
      </trkpt>
      <trkpt lat="47.7599" lon="7.05276">
        <ele>412</ele>
        <time>2015-11-15T12:41:06Z</time>
      </trkpt>
      <trkpt lat="47.75986" lon="7.05254">
        <ele>414</ele>
        <time>2015-11-15T12:41:18Z</time>
      </trkpt>
      <trkpt lat="47.7598" lon="7.0523">
        <ele>415</ele>
        <time>2015-11-15T12:41:32Z</time>
      </trkpt>
      <trkpt lat="47.75979" lon="7.05204">
        <ele>414</ele>
        <time>2015-11-15T12:41:47Z</time>
      </trkpt>
      <trkpt lat="47.75984" lon="7.05182">
        <ele>410</ele>
        <time>2015-11-15T12:42:05Z</time>
      </trkpt>
      <trkpt lat="47.75986" lon="7.05161">
        <ele>412</ele>
        <time>2015-11-15T12:42:16Z</time>
      </trkpt>
      <trkpt lat="47.75987" lon="7.05136">
        <ele>412</ele>
        <time>2015-11-15T12:42:28Z</time>
      </trkpt>
      <trkpt lat="47.75989" lon="7.05118">
        <ele>413</ele>
        <time>2015-11-15T12:42:38Z</time>
      </trkpt>
      <trkpt lat="47.75991" lon="7.05096">
        <ele>414</ele>
        <time>2015-11-15T12:42:51Z</time>
      </trkpt>
      <trkpt lat="47.75991" lon="7.05069">
        <ele>415</ele>
        <time>2015-11-15T12:43:05Z</time>
      </trkpt>
      <trkpt lat="47.75993" lon="7.05044">
        <ele>415</ele>
        <time>2015-11-15T12:43:19Z</time>
      </trkpt>
      <trkpt lat="47.75995" lon="7.05012">
        <ele>417</ele>
        <time>2015-11-15T12:43:38Z</time>
      </trkpt>
      <trkpt lat="47.76002" lon="7.0499">
        <ele>413</ele>
        <time>2015-11-15T12:44:00Z</time>
      </trkpt>
      <trkpt lat="47.76018" lon="7.04986">
        <ele>409</ele>
        <time>2015-11-15T12:44:16Z</time>
      </trkpt>
      <trkpt lat="47.76024" lon="7.04985">
        <ele>409</ele>
        <time>2015-11-15T12:44:24Z</time>
      </trkpt>
      <trkpt lat="47.76024" lon="7.04985">
        <ele>362.2</ele>
        <time>2015-11-15T12:44:31Z</time>
      </trkpt>
      <trkpt lat="47.76024" lon="7.04985">
        <ele>362.2</ele>
        <time>2015-11-15T12:45:30Z</time>
      </trkpt>
      <trkpt lat="47.76052" lon="7.0498">
        <ele>415</ele>
        <time>2015-11-15T12:45:30Z</time>
      </trkpt>
      <trkpt lat="47.76054" lon="7.04973">
        <ele>417</ele>
        <time>2015-11-15T12:45:35Z</time>
      </trkpt>
      <trkpt lat="47.76054" lon="7.04973">
        <ele>366.8</ele>
        <time>2015-11-15T12:45:43Z</time>
      </trkpt>
      <trkpt lat="47.76054" lon="7.04973">
        <ele>366.8</ele>
        <time>2015-11-15T12:47:11Z</time>
      </trkpt>
      <trkpt lat="47.76065" lon="7.04932">
        <ele>420</ele>
        <time>2015-11-15T12:47:11Z</time>
      </trkpt>
      <trkpt lat="47.76068" lon="7.04917">
        <ele>418</ele>
        <time>2015-11-15T12:47:24Z</time>
      </trkpt>
      <trkpt lat="47.76068" lon="7.04917">
        <ele>374.1</ele>
        <time>2015-11-15T12:47:31Z</time>
      </trkpt>
      <trkpt lat="47.76068" lon="7.04917">
        <ele>374.1</ele>
        <time>2015-11-15T12:47:38Z</time>
      </trkpt>
      <trkpt lat="47.76071" lon="7.04906">
        <ele>420</ele>
        <time>2015-11-15T12:47:38Z</time>
      </trkpt>
      <trkpt lat="47.76077" lon="7.04878">
        <ele>425</ele>
        <time>2015-11-15T12:47:58Z</time>
      </trkpt>
      <trkpt lat="47.76078" lon="7.0486">
        <ele>430</ele>
        <time>2015-11-15T12:48:08Z</time>
      </trkpt>
      <trkpt lat="47.76078" lon="7.0486">
        <ele>376.5</ele>
        <time>2015-11-15T12:48:15Z</time>
      </trkpt>
      <trkpt lat="47.76078" lon="7.0486">
        <ele>376.5</ele>
        <time>2015-11-15T12:48:49Z</time>
      </trkpt>
      <trkpt lat="47.76086" lon="7.04816">
        <ele>428</ele>
        <time>2015-11-15T12:48:49Z</time>
      </trkpt>
      <trkpt lat="47.76089" lon="7.04799">
        <ele>426</ele>
        <time>2015-11-15T12:48:58Z</time>
      </trkpt>
      <trkpt lat="47.76093" lon="7.04778">
        <ele>432</ele>
        <time>2015-11-15T12:49:12Z</time>
      </trkpt>
      <trkpt lat="47.76095" lon="7.04771">
        <ele>433</ele>
        <time>2015-11-15T12:49:19Z</time>
      </trkpt>
      <trkpt lat="47.76095" lon="7.04771">
        <ele>379</ele>
        <time>2015-11-15T12:49:27Z</time>
      </trkpt>
      <trkpt lat="47.76095" lon="7.04771">
        <ele>379</ele>
        <time>2015-11-15T12:49:35Z</time>
      </trkpt>
      <trkpt lat="47.76099" lon="7.04763">
        <ele>433</ele>
        <time>2015-11-15T12:49:35Z</time>
      </trkpt>
      <trkpt lat="47.76099" lon="7.04729">
        <ele>431</ele>
        <time>2015-11-15T12:49:53Z</time>
      </trkpt>
      <trkpt lat="47.761" lon="7.04723">
        <ele>432</ele>
        <time>2015-11-15T12:49:58Z</time>
      </trkpt>
      <trkpt lat="47.761" lon="7.04723">
        <ele>382.5</ele>
        <time>2015-11-15T12:50:03Z</time>
      </trkpt>
      <trkpt lat="47.761" lon="7.04723">
        <ele>382.5</ele>
        <time>2015-11-15T12:50:10Z</time>
      </trkpt>
      <trkpt lat="47.76102" lon="7.04709">
        <ele>437</ele>
        <time>2015-11-15T12:50:10Z</time>
      </trkpt>
      <trkpt lat="47.76105" lon="7.04687">
        <ele>437</ele>
        <time>2015-11-15T12:50:26Z</time>
      </trkpt>
      <trkpt lat="47.76109" lon="7.0467">
        <ele>439</ele>
        <time>2015-11-15T12:50:40Z</time>
      </trkpt>
      <trkpt lat="47.76116" lon="7.04651">
        <ele>433</ele>
        <time>2015-11-15T12:50:56Z</time>
      </trkpt>
      <trkpt lat="47.76118" lon="7.04626">
        <ele>441</ele>
        <time>2015-11-15T12:51:11Z</time>
      </trkpt>
      <trkpt lat="47.76119" lon="7.04602">
        <ele>439</ele>
        <time>2015-11-15T12:51:27Z</time>
      </trkpt>
      <trkpt lat="47.7612" lon="7.04575">
        <ele>437</ele>
        <time>2015-11-15T12:51:45Z</time>
      </trkpt>
      <trkpt lat="47.76124" lon="7.0455">
        <ele>442</ele>
        <time>2015-11-15T12:52:04Z</time>
      </trkpt>
      <trkpt lat="47.7613" lon="7.04531">
        <ele>444</ele>
        <time>2015-11-15T12:52:21Z</time>
      </trkpt>
      <trkpt lat="47.76131" lon="7.04517">
        <ele>443</ele>
        <time>2015-11-15T12:52:30Z</time>
      </trkpt>
      <trkpt lat="47.76131" lon="7.04517">
        <ele>396.1</ele>
        <time>2015-11-15T12:52:38Z</time>
      </trkpt>
      <trkpt lat="47.76131" lon="7.04517">
        <ele>396.1</ele>
        <time>2015-11-15T12:52:44Z</time>
      </trkpt>
      <trkpt lat="47.76135" lon="7.04504">
        <ele>444</ele>
        <time>2015-11-15T12:52:44Z</time>
      </trkpt>
      <trkpt lat="47.7614" lon="7.04477">
        <ele>445</ele>
        <time>2015-11-15T12:53:06Z</time>
      </trkpt>
      <trkpt lat="47.76156" lon="7.0444">
        <ele>447</ele>
        <time>2015-11-15T12:53:45Z</time>
      </trkpt>
      <trkpt lat="47.76178" lon="7.04421">
        <ele>459</ele>
        <time>2015-11-15T12:55:09Z</time>
      </trkpt>
      <trkpt lat="47.76203" lon="7.04443">
        <ele>460</ele>
        <time>2015-11-15T12:56:16Z</time>
      </trkpt>
      <trkpt lat="47.76214" lon="7.04458">
        <ele>456</ele>
        <time>2015-11-15T12:56:32Z</time>
      </trkpt>
      <trkpt lat="47.76223" lon="7.04467">
        <ele>460</ele>
        <time>2015-11-15T12:56:44Z</time>
      </trkpt>
      <trkpt lat="47.76232" lon="7.04477">
        <ele>462</ele>
        <time>2015-11-15T12:56:56Z</time>
      </trkpt>
      <trkpt lat="47.76237" lon="7.04481">
        <ele>462</ele>
        <time>2015-11-15T12:57:03Z</time>
      </trkpt>
      <trkpt lat="47.76237" lon="7.04481">
        <ele>419.8</ele>
        <time>2015-11-15T12:57:10Z</time>
      </trkpt>
      <trkpt lat="47.76237" lon="7.04481">
        <ele>419.8</ele>
        <time>2015-11-15T12:57:18Z</time>
      </trkpt>
      <trkpt lat="47.76243" lon="7.04491">
        <ele>466</ele>
        <time>2015-11-15T12:57:18Z</time>
      </trkpt>
      <trkpt lat="47.76256" lon="7.04508">
        <ele>466</ele>
        <time>2015-11-15T12:57:37Z</time>
      </trkpt>
      <trkpt lat="47.76267" lon="7.04521">
        <ele>466</ele>
        <time>2015-11-15T12:57:55Z</time>
      </trkpt>
      <trkpt lat="47.7628" lon="7.04536">
        <ele>465</ele>
        <time>2015-11-15T12:58:12Z</time>
      </trkpt>
      <trkpt lat="47.76288" lon="7.04542">
        <ele>466</ele>
        <time>2015-11-15T12:58:21Z</time>
      </trkpt>
      <trkpt lat="47.763" lon="7.0455">
        <ele>465</ele>
        <time>2015-11-15T12:58:34Z</time>
      </trkpt>
      <trkpt lat="47.7631" lon="7.04555">
        <ele>468</ele>
        <time>2015-11-15T12:58:46Z</time>
      </trkpt>
      <trkpt lat="47.7632" lon="7.04568">
        <ele>465</ele>
        <time>2015-11-15T12:58:59Z</time>
      </trkpt>
      <trkpt lat="47.76334" lon="7.04578">
        <ele>468</ele>
        <time>2015-11-15T12:59:15Z</time>
      </trkpt>
      <trkpt lat="47.76344" lon="7.04589">
        <ele>469</ele>
        <time>2015-11-15T12:59:27Z</time>
      </trkpt>
      <trkpt lat="47.76355" lon="7.04592">
        <ele>473</ele>
        <time>2015-11-15T12:59:37Z</time>
      </trkpt>
      <trkpt lat="47.76376" lon="7.04608">
        <ele>474</ele>
        <time>2015-11-15T12:59:57Z</time>
      </trkpt>
      <trkpt lat="47.76385" lon="7.04614">
        <ele>473</ele>
        <time>2015-11-15T13:00:06Z</time>
      </trkpt>
      <trkpt lat="47.76396" lon="7.04626">
        <ele>471</ele>
        <time>2015-11-15T13:00:20Z</time>
      </trkpt>
      <trkpt lat="47.7641" lon="7.0464">
        <ele>472</ele>
        <time>2015-11-15T13:00:36Z</time>
      </trkpt>
      <trkpt lat="47.7642" lon="7.0466">
        <ele>469</ele>
        <time>2015-11-15T13:00:54Z</time>
      </trkpt>
      <trkpt lat="47.7643" lon="7.04682">
        <ele>466</ele>
        <time>2015-11-15T13:01:10Z</time>
      </trkpt>
      <trkpt lat="47.76436" lon="7.04705">
        <ele>473</ele>
        <time>2015-11-15T13:01:27Z</time>
      </trkpt>
      <trkpt lat="47.76439" lon="7.0472">
        <ele>472</ele>
        <time>2015-11-15T13:01:40Z</time>
      </trkpt>
      <trkpt lat="47.76439" lon="7.04748">
        <ele>476</ele>
        <time>2015-11-15T13:01:59Z</time>
      </trkpt>
      <trkpt lat="47.7644" lon="7.04776">
        <ele>472</ele>
        <time>2015-11-15T13:02:13Z</time>
      </trkpt>
      <trkpt lat="47.76446" lon="7.04803">
        <ele>474</ele>
        <time>2015-11-15T13:02:31Z</time>
      </trkpt>
      <trkpt lat="47.7646" lon="7.04822">
        <ele>473</ele>
        <time>2015-11-15T13:02:50Z</time>
      </trkpt>
      <trkpt lat="47.76472" lon="7.0484">
        <ele>475</ele>
        <time>2015-11-15T13:03:04Z</time>
      </trkpt>
      <trkpt lat="47.76479" lon="7.04851">
        <ele>475</ele>
        <time>2015-11-15T13:03:15Z</time>
      </trkpt>
      <trkpt lat="47.76488" lon="7.0486">
        <ele>474</ele>
        <time>2015-11-15T13:03:24Z</time>
      </trkpt>
      <trkpt lat="47.76507" lon="7.04873">
        <ele>469</ele>
        <time>2015-11-15T13:03:41Z</time>
      </trkpt>
      <trkpt lat="47.76523" lon="7.04889">
        <ele>464</ele>
        <time>2015-11-15T13:03:55Z</time>
      </trkpt>
      <trkpt lat="47.76537" lon="7.04898">
        <ele>465</ele>
        <time>2015-11-15T13:04:04Z</time>
      </trkpt>
      <trkpt lat="47.76557" lon="7.04912">
        <ele>471</ele>
        <time>2015-11-15T13:04:15Z</time>
      </trkpt>
      <trkpt lat="47.76568" lon="7.04925">
        <ele>476</ele>
        <time>2015-11-15T13:04:27Z</time>
      </trkpt>
      <trkpt lat="47.76582" lon="7.04946">
        <ele>476</ele>
        <time>2015-11-15T13:04:44Z</time>
      </trkpt>
      <trkpt lat="47.76591" lon="7.04958">
        <ele>475</ele>
        <time>2015-11-15T13:04:55Z</time>
      </trkpt>
      <trkpt lat="47.76605" lon="7.04973">
        <ele>476</ele>
        <time>2015-11-15T13:05:11Z</time>
      </trkpt>
      <trkpt lat="47.76616" lon="7.04986">
        <ele>476</ele>
        <time>2015-11-15T13:05:23Z</time>
      </trkpt>
      <trkpt lat="47.76625" lon="7.04995">
        <ele>476</ele>
        <time>2015-11-15T13:05:34Z</time>
      </trkpt>
      <trkpt lat="47.76641" lon="7.05011">
        <ele>476</ele>
        <time>2015-11-15T13:05:52Z</time>
      </trkpt>
      <trkpt lat="47.76653" lon="7.05019">
        <ele>476</ele>
        <time>2015-11-15T13:06:04Z</time>
      </trkpt>
      <trkpt lat="47.7667" lon="7.05032">
        <ele>474</ele>
        <time>2015-11-15T13:06:21Z</time>
      </trkpt>
      <trkpt lat="47.7669" lon="7.05048">
        <ele>472</ele>
        <time>2015-11-15T13:06:41Z</time>
      </trkpt>
      <trkpt lat="47.76706" lon="7.05058">
        <ele>475</ele>
        <time>2015-11-15T13:06:57Z</time>
      </trkpt>
      <trkpt lat="47.76723" lon="7.0507">
        <ele>480</ele>
        <time>2015-11-15T13:07:12Z</time>
      </trkpt>
      <trkpt lat="47.76737" lon="7.05082">
        <ele>474</ele>
        <time>2015-11-15T13:07:27Z</time>
      </trkpt>
      <trkpt lat="47.76754" lon="7.05098">
        <ele>470</ele>
        <time>2015-11-15T13:07:44Z</time>
      </trkpt>
      <trkpt lat="47.76764" lon="7.05111">
        <ele>473</ele>
        <time>2015-11-15T13:07:54Z</time>
      </trkpt>
      <trkpt lat="47.76777" lon="7.05124">
        <ele>477</ele>
        <time>2015-11-15T13:08:07Z</time>
      </trkpt>
      <trkpt lat="47.76785" lon="7.05124">
        <ele>475</ele>
        <time>2015-11-15T13:08:15Z</time>
      </trkpt>
      <trkpt lat="47.76797" lon="7.05127">
        <ele>477</ele>
        <time>2015-11-15T13:08:26Z</time>
      </trkpt>
      <trkpt lat="47.76818" lon="7.0513">
        <ele>473</ele>
        <time>2015-11-15T13:08:43Z</time>
      </trkpt>
      <trkpt lat="47.76837" lon="7.05134">
        <ele>475</ele>
        <time>2015-11-15T13:08:58Z</time>
      </trkpt>
      <trkpt lat="47.76861" lon="7.0514">
        <ele>480</ele>
        <time>2015-11-15T13:09:16Z</time>
      </trkpt>
      <trkpt lat="47.76871" lon="7.05142">
        <ele>483</ele>
        <time>2015-11-15T13:09:24Z</time>
      </trkpt>
      <trkpt lat="47.76871" lon="7.05142">
        <ele>483</ele>
        <time>2015-11-15T13:09:29Z</time>
      </trkpt>
      <trkpt lat="47.76871" lon="7.05142">
        <ele>437.2</ele>
        <time>2015-11-15T13:09:29Z</time>
      </trkpt>
      <trkpt lat="47.76871" lon="7.05142">
        <ele>437.2</ele>
        <time>2015-11-15T13:09:32Z</time>
      </trkpt>
      <trkpt lat="47.76881" lon="7.05145">
        <ele>481</ele>
        <time>2015-11-15T13:09:32Z</time>
      </trkpt>
      <trkpt lat="47.7689" lon="7.05149">
        <ele>481</ele>
        <time>2015-11-15T13:09:40Z</time>
      </trkpt>
      <trkpt lat="47.76897" lon="7.05158">
        <ele>483</ele>
        <time>2015-11-15T13:09:50Z</time>
      </trkpt>
      <trkpt lat="47.76916" lon="7.05172">
        <ele>483</ele>
        <time>2015-11-15T13:10:08Z</time>
      </trkpt>
      <trkpt lat="47.76935" lon="7.05189">
        <ele>482</ele>
        <time>2015-11-15T13:10:28Z</time>
      </trkpt>
      <trkpt lat="47.76949" lon="7.052">
        <ele>479</ele>
        <time>2015-11-15T13:10:41Z</time>
      </trkpt>
      <trkpt lat="47.76967" lon="7.05209">
        <ele>480</ele>
        <time>2015-11-15T13:10:56Z</time>
      </trkpt>
      <trkpt lat="47.76982" lon="7.05212">
        <ele>482</ele>
        <time>2015-11-15T13:11:11Z</time>
      </trkpt>
      <trkpt lat="47.76996" lon="7.05213">
        <ele>484</ele>
        <time>2015-11-15T13:11:24Z</time>
      </trkpt>
      <trkpt lat="47.77007" lon="7.05212">
        <ele>483</ele>
        <time>2015-11-15T13:11:36Z</time>
      </trkpt>
      <trkpt lat="47.77031" lon="7.05208">
        <ele>485</ele>
        <time>2015-11-15T13:11:58Z</time>
      </trkpt>
      <trkpt lat="47.77043" lon="7.05208">
        <ele>485</ele>
        <time>2015-11-15T13:12:07Z</time>
      </trkpt>
      <trkpt lat="47.77043" lon="7.05208">
        <ele>485</ele>
        <time>2015-11-15T13:12:14Z</time>
      </trkpt>
      <trkpt lat="47.77043" lon="7.05208">
        <ele>445.3</ele>
        <time>2015-11-15T13:12:14Z</time>
      </trkpt>
      <trkpt lat="47.77043" lon="7.05208">
        <ele>445.3</ele>
        <time>2015-11-15T13:12:22Z</time>
      </trkpt>
      <trkpt lat="47.77065" lon="7.05206">
        <ele>481</ele>
        <time>2015-11-15T13:12:22Z</time>
      </trkpt>
      <trkpt lat="47.77075" lon="7.05204">
        <ele>480</ele>
        <time>2015-11-15T13:12:28Z</time>
      </trkpt>
      <trkpt lat="47.77086" lon="7.052">
        <ele>481</ele>
        <time>2015-11-15T13:12:38Z</time>
      </trkpt>
      <trkpt lat="47.77109" lon="7.05195">
        <ele>482</ele>
        <time>2015-11-15T13:12:53Z</time>
      </trkpt>
      <trkpt lat="47.77125" lon="7.05195">
        <ele>483</ele>
        <time>2015-11-15T13:13:10Z</time>
      </trkpt>
      <trkpt lat="47.77136" lon="7.05196">
        <ele>483</ele>
        <time>2015-11-15T13:13:22Z</time>
      </trkpt>
      <trkpt lat="47.77151" lon="7.05197">
        <ele>485</ele>
        <time>2015-11-15T13:13:31Z</time>
      </trkpt>
      <trkpt lat="47.77167" lon="7.05195">
        <ele>485</ele>
        <time>2015-11-15T13:13:41Z</time>
      </trkpt>
      <trkpt lat="47.77186" lon="7.05196">
        <ele>483</ele>
        <time>2015-11-15T13:13:56Z</time>
      </trkpt>
      <trkpt lat="47.77202" lon="7.05205">
        <ele>483</ele>
        <time>2015-11-15T13:14:08Z</time>
      </trkpt>
      <trkpt lat="47.77218" lon="7.05228">
        <ele>485</ele>
        <time>2015-11-15T13:14:24Z</time>
      </trkpt>
      <trkpt lat="47.77234" lon="7.05248">
        <ele>486</ele>
        <time>2015-11-15T13:14:42Z</time>
      </trkpt>
      <trkpt lat="47.77234" lon="7.05248">
        <ele>486</ele>
        <time>2015-11-15T13:14:50Z</time>
      </trkpt>
      <trkpt lat="47.77234" lon="7.05248">
        <ele>451</ele>
        <time>2015-11-15T13:14:50Z</time>
      </trkpt>
      <trkpt lat="47.77234" lon="7.05248">
        <ele>451</ele>
        <time>2015-11-15T13:15:00Z</time>
      </trkpt>
      <trkpt lat="47.77244" lon="7.05261">
        <ele>491</ele>
        <time>2015-11-15T13:15:00Z</time>
      </trkpt>
      <trkpt lat="47.7726" lon="7.05285">
        <ele>491</ele>
        <time>2015-11-15T13:15:17Z</time>
      </trkpt>
      <trkpt lat="47.7727" lon="7.05301">
        <ele>490</ele>
        <time>2015-11-15T13:15:28Z</time>
      </trkpt>
      <trkpt lat="47.77282" lon="7.05321">
        <ele>490</ele>
        <time>2015-11-15T13:15:44Z</time>
      </trkpt>
      <trkpt lat="47.77292" lon="7.05335">
        <ele>487</ele>
        <time>2015-11-15T13:15:57Z</time>
      </trkpt>
      <trkpt lat="47.77304" lon="7.05343">
        <ele>484</ele>
        <time>2015-11-15T13:16:08Z</time>
      </trkpt>
      <trkpt lat="47.77316" lon="7.0535">
        <ele>484</ele>
        <time>2015-11-15T13:16:17Z</time>
      </trkpt>
      <trkpt lat="47.77336" lon="7.05358">
        <ele>480</ele>
        <time>2015-11-15T13:16:33Z</time>
      </trkpt>
      <trkpt lat="47.77357" lon="7.05371">
        <ele>476</ele>
        <time>2015-11-15T13:16:51Z</time>
      </trkpt>
      <trkpt lat="47.77374" lon="7.05385">
        <ele>475</ele>
        <time>2015-11-15T13:17:04Z</time>
      </trkpt>
      <trkpt lat="47.77387" lon="7.05405">
        <ele>470</ele>
        <time>2015-11-15T13:17:19Z</time>
      </trkpt>
      <trkpt lat="47.77398" lon="7.05423">
        <ele>471</ele>
        <time>2015-11-15T13:17:31Z</time>
      </trkpt>
      <trkpt lat="47.77406" lon="7.05452">
        <ele>468</ele>
        <time>2015-11-15T13:17:48Z</time>
      </trkpt>
      <trkpt lat="47.77411" lon="7.05472">
        <ele>466</ele>
        <time>2015-11-15T13:18:01Z</time>
      </trkpt>
      <trkpt lat="47.77412" lon="7.05504">
        <ele>466</ele>
        <time>2015-11-15T13:18:18Z</time>
      </trkpt>
      <trkpt lat="47.77417" lon="7.05532">
        <ele>466</ele>
        <time>2015-11-15T13:18:34Z</time>
      </trkpt>
      <trkpt lat="47.77429" lon="7.05555">
        <ele>463</ele>
        <time>2015-11-15T13:18:50Z</time>
      </trkpt>
      <trkpt lat="47.77434" lon="7.05575">
        <ele>460</ele>
        <time>2015-11-15T13:19:05Z</time>
      </trkpt>
      <trkpt lat="47.77442" lon="7.05599">
        <ele>457</ele>
        <time>2015-11-15T13:19:21Z</time>
      </trkpt>
      <trkpt lat="47.77452" lon="7.05623">
        <ele>452</ele>
        <time>2015-11-15T13:19:39Z</time>
      </trkpt>
      <trkpt lat="47.77462" lon="7.05646">
        <ele>448</ele>
        <time>2015-11-15T13:19:57Z</time>
      </trkpt>
      <trkpt lat="47.77461" lon="7.0568">
        <ele>444</ele>
        <time>2015-11-15T13:20:16Z</time>
      </trkpt>
      <trkpt lat="47.77457" lon="7.05697">
        <ele>450</ele>
        <time>2015-11-15T13:20:26Z</time>
      </trkpt>
      <trkpt lat="47.77454" lon="7.05712">
        <ele>439</ele>
        <time>2015-11-15T13:20:34Z</time>
      </trkpt>
      <trkpt lat="47.77454" lon="7.05734">
        <ele>434</ele>
        <time>2015-11-15T13:20:49Z</time>
      </trkpt>
      <trkpt lat="47.77464" lon="7.05759">
        <ele>431</ele>
        <time>2015-11-15T13:21:05Z</time>
      </trkpt>
      <trkpt lat="47.77473" lon="7.05775">
        <ele>425</ele>
        <time>2015-11-15T13:21:20Z</time>
      </trkpt>
      <trkpt lat="47.77499" lon="7.05795">
        <ele>424</ele>
        <time>2015-11-15T13:22:06Z</time>
      </trkpt>
      <trkpt lat="47.77506" lon="7.05807">
        <ele>421</ele>
        <time>2015-11-15T13:22:16Z</time>
      </trkpt>
      <trkpt lat="47.77511" lon="7.05828">
        <ele>420</ele>
        <time>2015-11-15T13:22:31Z</time>
      </trkpt>
      <trkpt lat="47.77511" lon="7.05863">
        <ele>420</ele>
        <time>2015-11-15T13:22:51Z</time>
      </trkpt>
      <trkpt lat="47.77494" lon="7.05878">
        <ele>424</ele>
        <time>2015-11-15T13:23:06Z</time>
      </trkpt>
      <trkpt lat="47.77484" lon="7.05897">
        <ele>424</ele>
        <time>2015-11-15T13:23:21Z</time>
      </trkpt>
      <trkpt lat="47.77489" lon="7.05923">
        <ele>424</ele>
        <time>2015-11-15T13:23:36Z</time>
      </trkpt>
      <trkpt lat="47.77495" lon="7.05946">
        <ele>428</ele>
        <time>2015-11-15T13:23:47Z</time>
      </trkpt>
      <trkpt lat="47.77499" lon="7.05959">
        <ele>428</ele>
        <time>2015-11-15T13:23:54Z</time>
      </trkpt>
      <trkpt lat="47.77499" lon="7.05986">
        <ele>428</ele>
        <time>2015-11-15T13:24:09Z</time>
      </trkpt>
      <trkpt lat="47.77498" lon="7.06016">
        <ele>430</ele>
        <time>2015-11-15T13:24:25Z</time>
      </trkpt>
      <trkpt lat="47.77492" lon="7.06037">
        <ele>434</ele>
        <time>2015-11-15T13:24:38Z</time>
      </trkpt>
      <trkpt lat="47.77483" lon="7.06056">
        <ele>439</ele>
        <time>2015-11-15T13:24:49Z</time>
      </trkpt>
      <trkpt lat="47.7747" lon="7.06071">
        <ele>443</ele>
        <time>2015-11-15T13:25:05Z</time>
      </trkpt>
      <trkpt lat="47.77462" lon="7.0608">
        <ele>445</ele>
        <time>2015-11-15T13:25:12Z</time>
      </trkpt>
      <trkpt lat="47.77455" lon="7.06091">
        <ele>445</ele>
        <time>2015-11-15T13:25:20Z</time>
      </trkpt>
      <trkpt lat="47.77444" lon="7.06108">
        <ele>446</ele>
        <time>2015-11-15T13:25:33Z</time>
      </trkpt>
      <trkpt lat="47.77433" lon="7.06124">
        <ele>448</ele>
        <time>2015-11-15T13:25:46Z</time>
      </trkpt>
      <trkpt lat="47.77422" lon="7.0614">
        <ele>449</ele>
        <time>2015-11-15T13:25:59Z</time>
      </trkpt>
      <trkpt lat="47.7741" lon="7.06156">
        <ele>451</ele>
        <time>2015-11-15T13:26:15Z</time>
      </trkpt>
      <trkpt lat="47.77398" lon="7.0617">
        <ele>450</ele>
        <time>2015-11-15T13:26:29Z</time>
      </trkpt>
      <trkpt lat="47.77383" lon="7.06183">
        <ele>451</ele>
        <time>2015-11-15T13:26:42Z</time>
      </trkpt>
      <trkpt lat="47.7737" lon="7.06197">
        <ele>452</ele>
        <time>2015-11-15T13:26:56Z</time>
      </trkpt>
      <trkpt lat="47.77359" lon="7.06218">
        <ele>452</ele>
        <time>2015-11-15T13:27:10Z</time>
      </trkpt>
      <trkpt lat="47.77352" lon="7.06235">
        <ele>452</ele>
        <time>2015-11-15T13:27:21Z</time>
      </trkpt>
      <trkpt lat="47.7734" lon="7.06256">
        <ele>453</ele>
        <time>2015-11-15T13:27:36Z</time>
      </trkpt>
      <trkpt lat="47.77328" lon="7.06276">
        <ele>454</ele>
        <time>2015-11-15T13:27:51Z</time>
      </trkpt>
      <trkpt lat="47.77316" lon="7.06296">
        <ele>453</ele>
        <time>2015-11-15T13:28:06Z</time>
      </trkpt>
      <trkpt lat="47.773" lon="7.06319">
        <ele>454</ele>
        <time>2015-11-15T13:28:24Z</time>
      </trkpt>
      <trkpt lat="47.77288" lon="7.06343">
        <ele>454</ele>
        <time>2015-11-15T13:28:40Z</time>
      </trkpt>
      <trkpt lat="47.77273" lon="7.06366">
        <ele>455</ele>
        <time>2015-11-15T13:28:56Z</time>
      </trkpt>
      <trkpt lat="47.77264" lon="7.06378">
        <ele>455</ele>
        <time>2015-11-15T13:29:05Z</time>
      </trkpt>
      <trkpt lat="47.77254" lon="7.06397">
        <ele>455</ele>
        <time>2015-11-15T13:29:18Z</time>
      </trkpt>
      <trkpt lat="47.77248" lon="7.06406">
        <ele>455</ele>
        <time>2015-11-15T13:29:25Z</time>
      </trkpt>
      <trkpt lat="47.77248" lon="7.06406">
        <ele>455</ele>
        <time>2015-11-15T13:29:33Z</time>
      </trkpt>
      <trkpt lat="47.77248" lon="7.06406">
        <ele>403.6</ele>
        <time>2015-11-15T13:29:33Z</time>
      </trkpt>
      <trkpt lat="47.77248" lon="7.06406">
        <ele>403.6</ele>
        <time>2015-11-15T13:29:45Z</time>
      </trkpt>
      <trkpt lat="47.77238" lon="7.06419">
        <ele>455</ele>
        <time>2015-11-15T13:29:45Z</time>
      </trkpt>
      <trkpt lat="47.7723" lon="7.0643">
        <ele>455</ele>
        <time>2015-11-15T13:29:53Z</time>
      </trkpt>
      <trkpt lat="47.77215" lon="7.06445">
        <ele>456</ele>
        <time>2015-11-15T13:30:09Z</time>
      </trkpt>
      <trkpt lat="47.77198" lon="7.06467">
        <ele>457</ele>
        <time>2015-11-15T13:30:26Z</time>
      </trkpt>
      <trkpt lat="47.77187" lon="7.06488">
        <ele>456</ele>
        <time>2015-11-15T13:30:45Z</time>
      </trkpt>
      <trkpt lat="47.77194" lon="7.06509">
        <ele>455</ele>
        <time>2015-11-15T13:31:03Z</time>
      </trkpt>
      <trkpt lat="47.77199" lon="7.06528">
        <ele>458</ele>
        <time>2015-11-15T13:31:22Z</time>
      </trkpt>
      <trkpt lat="47.77215" lon="7.06564">
        <ele>461</ele>
        <time>2015-11-15T13:32:08Z</time>
      </trkpt>
      <trkpt lat="47.7722" lon="7.06591">
        <ele>465</ele>
        <time>2015-11-15T13:32:29Z</time>
      </trkpt>
      <trkpt lat="47.77225" lon="7.06609">
        <ele>467</ele>
        <time>2015-11-15T13:32:46Z</time>
      </trkpt>
      <trkpt lat="47.77223" lon="7.06648">
        <ele>470</ele>
        <time>2015-11-15T13:33:19Z</time>
      </trkpt>
      <trkpt lat="47.7721" lon="7.06666">
        <ele>470</ele>
        <time>2015-11-15T13:33:33Z</time>
      </trkpt>
      <trkpt lat="47.772" lon="7.06676">
        <ele>471</ele>
        <time>2015-11-15T13:33:43Z</time>
      </trkpt>
      <trkpt lat="47.77187" lon="7.0669">
        <ele>471</ele>
        <time>2015-11-15T13:33:56Z</time>
      </trkpt>
      <trkpt lat="47.77171" lon="7.06702">
        <ele>472</ele>
        <time>2015-11-15T13:34:09Z</time>
      </trkpt>
      <trkpt lat="47.77162" lon="7.06709">
        <ele>471</ele>
        <time>2015-11-15T13:34:18Z</time>
      </trkpt>
      <trkpt lat="47.77139" lon="7.06724">
        <ele>471</ele>
        <time>2015-11-15T13:34:37Z</time>
      </trkpt>
      <trkpt lat="47.77123" lon="7.06737">
        <ele>470</ele>
        <time>2015-11-15T13:34:49Z</time>
      </trkpt>
      <trkpt lat="47.77111" lon="7.06745">
        <ele>469</ele>
        <time>2015-11-15T13:34:59Z</time>
      </trkpt>
      <trkpt lat="47.77097" lon="7.06755">
        <ele>469</ele>
        <time>2015-11-15T13:35:11Z</time>
      </trkpt>
      <trkpt lat="47.77077" lon="7.06769">
        <ele>468</ele>
        <time>2015-11-15T13:35:26Z</time>
      </trkpt>
      <trkpt lat="47.77062" lon="7.06779">
        <ele>467</ele>
        <time>2015-11-15T13:35:38Z</time>
      </trkpt>
      <trkpt lat="47.77043" lon="7.06793">
        <ele>467</ele>
        <time>2015-11-15T13:35:52Z</time>
      </trkpt>
      <trkpt lat="47.77029" lon="7.06805">
        <ele>467</ele>
        <time>2015-11-15T13:36:04Z</time>
      </trkpt>
      <trkpt lat="47.77012" lon="7.06823">
        <ele>467</ele>
        <time>2015-11-15T13:36:19Z</time>
      </trkpt>
      <trkpt lat="47.76997" lon="7.06838">
        <ele>467</ele>
        <time>2015-11-15T13:36:32Z</time>
      </trkpt>
      <trkpt lat="47.76983" lon="7.06851">
        <ele>468</ele>
        <time>2015-11-15T13:36:43Z</time>
      </trkpt>
      <trkpt lat="47.76967" lon="7.06868">
        <ele>467</ele>
        <time>2015-11-15T13:36:58Z</time>
      </trkpt>
      <trkpt lat="47.76952" lon="7.06884">
        <ele>467</ele>
        <time>2015-11-15T13:37:11Z</time>
      </trkpt>
      <trkpt lat="47.76933" lon="7.06901">
        <ele>466</ele>
        <time>2015-11-15T13:37:28Z</time>
      </trkpt>
      <trkpt lat="47.76915" lon="7.06909">
        <ele>464</ele>
        <time>2015-11-15T13:37:42Z</time>
      </trkpt>
      <trkpt lat="47.76904" lon="7.0691">
        <ele>464</ele>
        <time>2015-11-15T13:37:50Z</time>
      </trkpt>
      <trkpt lat="47.76889" lon="7.06908">
        <ele>465</ele>
        <time>2015-11-15T13:38:00Z</time>
      </trkpt>
      <trkpt lat="47.7687" lon="7.06896">
        <ele>465</ele>
        <time>2015-11-15T13:38:15Z</time>
      </trkpt>
      <trkpt lat="47.76856" lon="7.06873">
        <ele>462</ele>
        <time>2015-11-15T13:38:30Z</time>
      </trkpt>
      <trkpt lat="47.76846" lon="7.06855">
        <ele>461</ele>
        <time>2015-11-15T13:38:43Z</time>
      </trkpt>
      <trkpt lat="47.76829" lon="7.06854">
        <ele>462</ele>
        <time>2015-11-15T13:38:56Z</time>
      </trkpt>
      <trkpt lat="47.76812" lon="7.06859">
        <ele>462</ele>
        <time>2015-11-15T13:39:08Z</time>
      </trkpt>
      <trkpt lat="47.76793" lon="7.06865">
        <ele>461</ele>
        <time>2015-11-15T13:39:21Z</time>
      </trkpt>
      <trkpt lat="47.76783" lon="7.06869">
        <ele>459</ele>
        <time>2015-11-15T13:39:29Z</time>
      </trkpt>
      <trkpt lat="47.76763" lon="7.06879">
        <ele>458</ele>
        <time>2015-11-15T13:39:44Z</time>
      </trkpt>
      <trkpt lat="47.76745" lon="7.06887">
        <ele>457</ele>
        <time>2015-11-15T13:39:58Z</time>
      </trkpt>
      <trkpt lat="47.76736" lon="7.06891">
        <ele>458</ele>
        <time>2015-11-15T13:40:05Z</time>
      </trkpt>
      <trkpt lat="47.7672" lon="7.06895">
        <ele>459</ele>
        <time>2015-11-15T13:40:17Z</time>
      </trkpt>
      <trkpt lat="47.76701" lon="7.06903">
        <ele>460</ele>
        <time>2015-11-15T13:40:31Z</time>
      </trkpt>
      <trkpt lat="47.7668" lon="7.06911">
        <ele>460</ele>
        <time>2015-11-15T13:40:47Z</time>
      </trkpt>
      <trkpt lat="47.76662" lon="7.06918">
        <ele>460</ele>
        <time>2015-11-15T13:41:01Z</time>
      </trkpt>
      <trkpt lat="47.76645" lon="7.06927">
        <ele>457</ele>
        <time>2015-11-15T13:41:15Z</time>
      </trkpt>
      <trkpt lat="47.76625" lon="7.06936">
        <ele>457</ele>
        <time>2015-11-15T13:41:31Z</time>
      </trkpt>
      <trkpt lat="47.76611" lon="7.06942">
        <ele>458</ele>
        <time>2015-11-15T13:41:41Z</time>
      </trkpt>
      <trkpt lat="47.76596" lon="7.0695">
        <ele>456</ele>
        <time>2015-11-15T13:41:53Z</time>
      </trkpt>
      <trkpt lat="47.76578" lon="7.06959">
        <ele>455</ele>
        <time>2015-11-15T13:42:07Z</time>
      </trkpt>
      <trkpt lat="47.76561" lon="7.06967">
        <ele>456</ele>
        <time>2015-11-15T13:42:20Z</time>
      </trkpt>
      <trkpt lat="47.76548" lon="7.06972">
        <ele>456</ele>
        <time>2015-11-15T13:42:30Z</time>
      </trkpt>
      <trkpt lat="47.76536" lon="7.06972">
        <ele>456</ele>
        <time>2015-11-15T13:42:40Z</time>
      </trkpt>
      <trkpt lat="47.76517" lon="7.06965">
        <ele>459</ele>
        <time>2015-11-15T13:42:54Z</time>
      </trkpt>
      <trkpt lat="47.76498" lon="7.0696">
        <ele>460</ele>
        <time>2015-11-15T13:43:09Z</time>
      </trkpt>
      <trkpt lat="47.76488" lon="7.06958">
        <ele>462</ele>
        <time>2015-11-15T13:43:17Z</time>
      </trkpt>
      <trkpt lat="47.76472" lon="7.06959">
        <ele>462</ele>
        <time>2015-11-15T13:43:29Z</time>
      </trkpt>
      <trkpt lat="47.76453" lon="7.06965">
        <ele>462</ele>
        <time>2015-11-15T13:43:43Z</time>
      </trkpt>
      <trkpt lat="47.7644" lon="7.06971">
        <ele>462</ele>
        <time>2015-11-15T13:43:53Z</time>
      </trkpt>
      <trkpt lat="47.76427" lon="7.06978">
        <ele>462</ele>
        <time>2015-11-15T13:44:03Z</time>
      </trkpt>
      <trkpt lat="47.76417" lon="7.06983">
        <ele>462</ele>
        <time>2015-11-15T13:44:10Z</time>
      </trkpt>
      <trkpt lat="47.76397" lon="7.06992">
        <ele>463</ele>
        <time>2015-11-15T13:44:25Z</time>
      </trkpt>
      <trkpt lat="47.76381" lon="7.07002">
        <ele>461</ele>
        <time>2015-11-15T13:44:38Z</time>
      </trkpt>
      <trkpt lat="47.76363" lon="7.07014">
        <ele>463</ele>
        <time>2015-11-15T13:44:52Z</time>
      </trkpt>
      <trkpt lat="47.76352" lon="7.0703">
        <ele>463</ele>
        <time>2015-11-15T13:45:03Z</time>
      </trkpt>
      <trkpt lat="47.76341" lon="7.07049">
        <ele>461</ele>
        <time>2015-11-15T13:45:16Z</time>
      </trkpt>
      <trkpt lat="47.76328" lon="7.07065">
        <ele>462</ele>
        <time>2015-11-15T13:45:28Z</time>
      </trkpt>
      <trkpt lat="47.76312" lon="7.07089">
        <ele>461</ele>
        <time>2015-11-15T13:45:45Z</time>
      </trkpt>
      <trkpt lat="47.76303" lon="7.07104">
        <ele>461</ele>
        <time>2015-11-15T13:45:56Z</time>
      </trkpt>
      <trkpt lat="47.76289" lon="7.07124">
        <ele>463</ele>
        <time>2015-11-15T13:46:11Z</time>
      </trkpt>
      <trkpt lat="47.76276" lon="7.07146">
        <ele>467</ele>
        <time>2015-11-15T13:46:26Z</time>
      </trkpt>
      <trkpt lat="47.76269" lon="7.07163">
        <ele>467</ele>
        <time>2015-11-15T13:46:36Z</time>
      </trkpt>
      <trkpt lat="47.76261" lon="7.07189">
        <ele>469</ele>
        <time>2015-11-15T13:46:50Z</time>
      </trkpt>
      <trkpt lat="47.76255" lon="7.07211">
        <ele>470</ele>
        <time>2015-11-15T13:47:02Z</time>
      </trkpt>
      <trkpt lat="47.76251" lon="7.07232">
        <ele>470</ele>
        <time>2015-11-15T13:47:13Z</time>
      </trkpt>
      <trkpt lat="47.76244" lon="7.07256">
        <ele>472</ele>
        <time>2015-11-15T13:47:25Z</time>
      </trkpt>
      <trkpt lat="47.76236" lon="7.0728">
        <ele>472</ele>
        <time>2015-11-15T13:47:38Z</time>
      </trkpt>
      <trkpt lat="47.76231" lon="7.07307">
        <ele>472</ele>
        <time>2015-11-15T13:47:51Z</time>
      </trkpt>
      <trkpt lat="47.76226" lon="7.0732">
        <ele>472</ele>
        <time>2015-11-15T13:47:58Z</time>
      </trkpt>
      <trkpt lat="47.76217" lon="7.07343">
        <ele>471</ele>
        <time>2015-11-15T13:48:11Z</time>
      </trkpt>
      <trkpt lat="47.76206" lon="7.0737">
        <ele>470</ele>
        <time>2015-11-15T13:48:26Z</time>
      </trkpt>
      <trkpt lat="47.76201" lon="7.07393">
        <ele>470</ele>
        <time>2015-11-15T13:48:39Z</time>
      </trkpt>
      <trkpt lat="47.76191" lon="7.0742">
        <ele>472</ele>
        <time>2015-11-15T13:48:55Z</time>
      </trkpt>
      <trkpt lat="47.76176" lon="7.07453">
        <ele>471</ele>
        <time>2015-11-15T13:49:14Z</time>
      </trkpt>
      <trkpt lat="47.76164" lon="7.0747">
        <ele>470</ele>
        <time>2015-11-15T13:49:27Z</time>
      </trkpt>
      <trkpt lat="47.76156" lon="7.07483">
        <ele>469</ele>
        <time>2015-11-15T13:49:38Z</time>
      </trkpt>
      <trkpt lat="47.7614" lon="7.07516">
        <ele>470</ele>
        <time>2015-11-15T13:49:55Z</time>
      </trkpt>
      <trkpt lat="47.7614" lon="7.0753">
        <ele>468</ele>
        <time>2015-11-15T13:50:02Z</time>
      </trkpt>
      <trkpt lat="47.76135" lon="7.07553">
        <ele>469</ele>
        <time>2015-11-15T13:50:13Z</time>
      </trkpt>
      <trkpt lat="47.7613" lon="7.07588">
        <ele>466</ele>
        <time>2015-11-15T13:50:32Z</time>
      </trkpt>
      <trkpt lat="47.76125" lon="7.07617">
        <ele>469</ele>
        <time>2015-11-15T13:50:44Z</time>
      </trkpt>
      <trkpt lat="47.76122" lon="7.07639">
        <ele>471</ele>
        <time>2015-11-15T13:50:55Z</time>
      </trkpt>
      <trkpt lat="47.76119" lon="7.07665">
        <ele>471</ele>
        <time>2015-11-15T13:51:08Z</time>
      </trkpt>
      <trkpt lat="47.76117" lon="7.07697">
        <ele>465</ele>
        <time>2015-11-15T13:51:26Z</time>
      </trkpt>
      <trkpt lat="47.76117" lon="7.07734">
        <ele>467</ele>
        <time>2015-11-15T13:51:43Z</time>
      </trkpt>
      <trkpt lat="47.76116" lon="7.07761">
        <ele>474</ele>
        <time>2015-11-15T13:51:53Z</time>
      </trkpt>
      <trkpt lat="47.76118" lon="7.07789">
        <ele>473</ele>
        <time>2015-11-15T13:52:09Z</time>
      </trkpt>
      <trkpt lat="47.76117" lon="7.0782">
        <ele>475</ele>
        <time>2015-11-15T13:52:27Z</time>
      </trkpt>
      <trkpt lat="47.7612" lon="7.07847">
        <ele>475</ele>
        <time>2015-11-15T13:52:38Z</time>
      </trkpt>
      <trkpt lat="47.7612" lon="7.07868">
        <ele>471</ele>
        <time>2015-11-15T13:52:52Z</time>
      </trkpt>
      <trkpt lat="47.76123" lon="7.07902">
        <ele>470</ele>
        <time>2015-11-15T13:53:10Z</time>
      </trkpt>
      <trkpt lat="47.76125" lon="7.07938">
        <ele>469</ele>
        <time>2015-11-15T13:53:25Z</time>
      </trkpt>
      <trkpt lat="47.76129" lon="7.07959">
        <ele>469</ele>
        <time>2015-11-15T13:53:35Z</time>
      </trkpt>
      <trkpt lat="47.76133" lon="7.07979">
        <ele>466</ele>
        <time>2015-11-15T13:53:45Z</time>
      </trkpt>
      <trkpt lat="47.76139" lon="7.08004">
        <ele>466</ele>
        <time>2015-11-15T13:53:58Z</time>
      </trkpt>
      <trkpt lat="47.7614" lon="7.08028">
        <ele>470</ele>
        <time>2015-11-15T13:54:08Z</time>
      </trkpt>
      <trkpt lat="47.76141" lon="7.08043">
        <ele>466</ele>
        <time>2015-11-15T13:54:17Z</time>
      </trkpt>
      <trkpt lat="47.76141" lon="7.08059">
        <ele>466</ele>
        <time>2015-11-15T13:54:27Z</time>
      </trkpt>
      <trkpt lat="47.76137" lon="7.08095">
        <ele>471</ele>
        <time>2015-11-15T13:54:44Z</time>
      </trkpt>
      <trkpt lat="47.76135" lon="7.08108">
        <ele>468</ele>
        <time>2015-11-15T13:54:52Z</time>
      </trkpt>
      <trkpt lat="47.76133" lon="7.08127">
        <ele>468</ele>
        <time>2015-11-15T13:55:02Z</time>
      </trkpt>
      <trkpt lat="47.76132" lon="7.08149">
        <ele>463</ele>
        <time>2015-11-15T13:55:15Z</time>
      </trkpt>
      <trkpt lat="47.76128" lon="7.08189">
        <ele>465</ele>
        <time>2015-11-15T13:55:32Z</time>
      </trkpt>
      <trkpt lat="47.76125" lon="7.08208">
        <ele>464</ele>
        <time>2015-11-15T13:55:43Z</time>
      </trkpt>
      <trkpt lat="47.76123" lon="7.08226">
        <ele>466</ele>
        <time>2015-11-15T13:55:50Z</time>
      </trkpt>
      <trkpt lat="47.76117" lon="7.08252">
        <ele>468</ele>
        <time>2015-11-15T13:56:03Z</time>
      </trkpt>
      <trkpt lat="47.76113" lon="7.08268">
        <ele>468</ele>
        <time>2015-11-15T13:56:13Z</time>
      </trkpt>
      <trkpt lat="47.76107" lon="7.08294">
        <ele>467</ele>
        <time>2015-11-15T13:56:26Z</time>
      </trkpt>
      <trkpt lat="47.76103" lon="7.08312">
        <ele>466</ele>
        <time>2015-11-15T13:56:35Z</time>
      </trkpt>
      <trkpt lat="47.76098" lon="7.08338">
        <ele>461</ele>
        <time>2015-11-15T13:56:49Z</time>
      </trkpt>
      <trkpt lat="47.76093" lon="7.08365">
        <ele>460</ele>
        <time>2015-11-15T13:57:03Z</time>
      </trkpt>
      <trkpt lat="47.76088" lon="7.0839">
        <ele>462</ele>
        <time>2015-11-15T13:57:18Z</time>
      </trkpt>
      <trkpt lat="47.76081" lon="7.08419">
        <ele>460</ele>
        <time>2015-11-15T13:57:32Z</time>
      </trkpt>
      <trkpt lat="47.76077" lon="7.08446">
        <ele>456</ele>
        <time>2015-11-15T13:57:45Z</time>
      </trkpt>
      <trkpt lat="47.76075" lon="7.08466">
        <ele>455</ele>
        <time>2015-11-15T13:57:55Z</time>
      </trkpt>
      <trkpt lat="47.76069" lon="7.08494">
        <ele>453</ele>
        <time>2015-11-15T13:58:09Z</time>
      </trkpt>
      <trkpt lat="47.76064" lon="7.08516">
        <ele>453</ele>
        <time>2015-11-15T13:58:24Z</time>
      </trkpt>
      <trkpt lat="47.76058" lon="7.08546">
        <ele>453</ele>
        <time>2015-11-15T13:58:39Z</time>
      </trkpt>
      <trkpt lat="47.76057" lon="7.08566">
        <ele>451</ele>
        <time>2015-11-15T13:58:50Z</time>
      </trkpt>
      <trkpt lat="47.7605" lon="7.08602">
        <ele>452</ele>
        <time>2015-11-15T13:59:09Z</time>
      </trkpt>
      <trkpt lat="47.76047" lon="7.08625">
        <ele>451</ele>
        <time>2015-11-15T13:59:21Z</time>
      </trkpt>
      <trkpt lat="47.76041" lon="7.08659">
        <ele>452</ele>
        <time>2015-11-15T13:59:34Z</time>
      </trkpt>
      <trkpt lat="47.76039" lon="7.08676">
        <ele>453</ele>
        <time>2015-11-15T13:59:44Z</time>
      </trkpt>
      <trkpt lat="47.76029" lon="7.08691">
        <ele>448</ele>
        <time>2015-11-15T14:00:00Z</time>
      </trkpt>
      <trkpt lat="47.76015" lon="7.08704">
        <ele>449</ele>
        <time>2015-11-15T14:00:15Z</time>
      </trkpt>
      <trkpt lat="47.76005" lon="7.08729">
        <ele>447</ele>
        <time>2015-11-15T14:00:30Z</time>
      </trkpt>
      <trkpt lat="47.75999" lon="7.08755">
        <ele>445</ele>
        <time>2015-11-15T14:00:47Z</time>
      </trkpt>
      <trkpt lat="47.75992" lon="7.08783">
        <ele>443</ele>
        <time>2015-11-15T14:01:04Z</time>
      </trkpt>
      <trkpt lat="47.75985" lon="7.08805">
        <ele>441</ele>
        <time>2015-11-15T14:01:16Z</time>
      </trkpt>
      <trkpt lat="47.75972" lon="7.08829">
        <ele>439</ele>
        <time>2015-11-15T14:01:32Z</time>
      </trkpt>
      <trkpt lat="47.75963" lon="7.08843">
        <ele>439</ele>
        <time>2015-11-15T14:01:40Z</time>
      </trkpt>
      <trkpt lat="47.75956" lon="7.08859">
        <ele>434</ele>
        <time>2015-11-15T14:01:52Z</time>
      </trkpt>
      <trkpt lat="47.75944" lon="7.08879">
        <ele>433</ele>
        <time>2015-11-15T14:02:09Z</time>
      </trkpt>
      <trkpt lat="47.75933" lon="7.08897">
        <ele>429</ele>
        <time>2015-11-15T14:02:24Z</time>
      </trkpt>
      <trkpt lat="47.75922" lon="7.08918">
        <ele>429</ele>
        <time>2015-11-15T14:02:38Z</time>
      </trkpt>
      <trkpt lat="47.7592" lon="7.08924">
        <ele>429</ele>
        <time>2015-11-15T14:02:42Z</time>
      </trkpt>
      <trkpt lat="47.7592" lon="7.08924">
        <ele>376.6</ele>
        <time>2015-11-15T14:02:48Z</time>
      </trkpt>
      <trkpt lat="47.7592" lon="7.08924">
        <ele>376.6</ele>
        <time>2015-11-15T14:03:03Z</time>
      </trkpt>
      <trkpt lat="47.75919" lon="7.08951">
        <ele>417</ele>
        <time>2015-11-15T14:03:03Z</time>
      </trkpt>
      <trkpt lat="47.75915" lon="7.08965">
        <ele>415</ele>
        <time>2015-11-15T14:03:11Z</time>
      </trkpt>
      <trkpt lat="47.75908" lon="7.08982">
        <ele>416</ele>
        <time>2015-11-15T14:03:21Z</time>
      </trkpt>
      <trkpt lat="47.75899" lon="7.09">
        <ele>415</ele>
        <time>2015-11-15T14:03:35Z</time>
      </trkpt>
      <trkpt lat="47.75887" lon="7.09016">
        <ele>413</ele>
        <time>2015-11-15T14:03:50Z</time>
      </trkpt>
      <trkpt lat="47.75882" lon="7.09033">
        <ele>409</ele>
        <time>2015-11-15T14:04:03Z</time>
      </trkpt>
      <trkpt lat="47.75883" lon="7.0906">
        <ele>406</ele>
        <time>2015-11-15T14:04:23Z</time>
      </trkpt>
      <trkpt lat="47.75892" lon="7.09101">
        <ele>406</ele>
        <time>2015-11-15T14:04:40Z</time>
      </trkpt>
      <trkpt lat="47.75896" lon="7.0912">
        <ele>408</ele>
        <time>2015-11-15T14:04:52Z</time>
      </trkpt>
      <trkpt lat="47.7589" lon="7.09142">
        <ele>414</ele>
        <time>2015-11-15T14:05:02Z</time>
      </trkpt>
      <trkpt lat="47.75879" lon="7.09151">
        <ele>411</ele>
        <time>2015-11-15T14:05:16Z</time>
      </trkpt>
      <trkpt lat="47.75866" lon="7.09149">
        <ele>407</ele>
        <time>2015-11-15T14:05:28Z</time>
      </trkpt>
      <trkpt lat="47.7585" lon="7.0914">
        <ele>407</ele>
        <time>2015-11-15T14:05:42Z</time>
      </trkpt>
      <trkpt lat="47.75825" lon="7.09132">
        <ele>401</ele>
        <time>2015-11-15T14:06:05Z</time>
      </trkpt>
      <trkpt lat="47.75812" lon="7.09127">
        <ele>400</ele>
        <time>2015-11-15T14:06:19Z</time>
      </trkpt>
      <trkpt lat="47.75791" lon="7.09117">
        <ele>393</ele>
        <time>2015-11-15T14:06:37Z</time>
      </trkpt>
      <trkpt lat="47.75778" lon="7.0911">
        <ele>392</ele>
        <time>2015-11-15T14:06:48Z</time>
      </trkpt>
      <trkpt lat="47.75768" lon="7.09108">
        <ele>389</ele>
        <time>2015-11-15T14:06:57Z</time>
      </trkpt>
      <trkpt lat="47.7575" lon="7.09095">
        <ele>389</ele>
        <time>2015-11-15T14:07:11Z</time>
      </trkpt>
      <trkpt lat="47.75741" lon="7.09079">
        <ele>387</ele>
        <time>2015-11-15T14:07:24Z</time>
      </trkpt>
      <trkpt lat="47.75727" lon="7.09062">
        <ele>387</ele>
        <time>2015-11-15T14:07:38Z</time>
      </trkpt>
      <trkpt lat="47.75703" lon="7.09048">
        <ele>385</ele>
        <time>2015-11-15T14:07:56Z</time>
      </trkpt>
      <trkpt lat="47.75687" lon="7.09045">
        <ele>382</ele>
        <time>2015-11-15T14:08:09Z</time>
      </trkpt>
      <trkpt lat="47.75668" lon="7.09048">
        <ele>384</ele>
        <time>2015-11-15T14:08:24Z</time>
      </trkpt>
      <trkpt lat="47.75641" lon="7.09054">
        <ele>383</ele>
        <time>2015-11-15T14:08:43Z</time>
      </trkpt>
      <trkpt lat="47.75622" lon="7.09061">
        <ele>385</ele>
        <time>2015-11-15T14:08:56Z</time>
      </trkpt>
      <trkpt lat="47.75607" lon="7.09066">
        <ele>384</ele>
        <time>2015-11-15T14:09:08Z</time>
      </trkpt>
      <trkpt lat="47.75592" lon="7.0907">
        <ele>383</ele>
        <time>2015-11-15T14:09:20Z</time>
      </trkpt>
      <trkpt lat="47.75571" lon="7.09079">
        <ele>382</ele>
        <time>2015-11-15T14:09:37Z</time>
      </trkpt>
      <trkpt lat="47.75555" lon="7.09086">
        <ele>379</ele>
        <time>2015-11-15T14:09:51Z</time>
      </trkpt>
      <trkpt lat="47.7554" lon="7.09089">
        <ele>379</ele>
        <time>2015-11-15T14:10:02Z</time>
      </trkpt>
      <trkpt lat="47.75526" lon="7.0909">
        <ele>379</ele>
        <time>2015-11-15T14:10:12Z</time>
      </trkpt>
      <trkpt lat="47.75507" lon="7.0909">
        <ele>379</ele>
        <time>2015-11-15T14:10:27Z</time>
      </trkpt>
      <trkpt lat="47.7549" lon="7.09087">
        <ele>379</ele>
        <time>2015-11-15T14:10:40Z</time>
      </trkpt>
      <trkpt lat="47.75479" lon="7.09087">
        <ele>377</ele>
        <time>2015-11-15T14:10:50Z</time>
      </trkpt>
      <trkpt lat="47.7546" lon="7.09082">
        <ele>377</ele>
        <time>2015-11-15T14:11:05Z</time>
      </trkpt>
      <trkpt lat="47.75439" lon="7.09073">
        <ele>376</ele>
        <time>2015-11-15T14:11:21Z</time>
      </trkpt>
      <trkpt lat="47.75423" lon="7.09067">
        <ele>377</ele>
        <time>2015-11-15T14:11:35Z</time>
      </trkpt>
      <trkpt lat="47.75405" lon="7.0906">
        <ele>377</ele>
        <time>2015-11-15T14:11:50Z</time>
      </trkpt>
      <trkpt lat="47.75387" lon="7.0905">
        <ele>382</ele>
        <time>2015-11-15T14:12:04Z</time>
      </trkpt>
      <trkpt lat="47.75372" lon="7.0904">
        <ele>384</ele>
        <time>2015-11-15T14:12:17Z</time>
      </trkpt>
      <trkpt lat="47.75356" lon="7.0903">
        <ele>381</ele>
        <time>2015-11-15T14:12:34Z</time>
      </trkpt>
      <trkpt lat="47.75338" lon="7.09021">
        <ele>382</ele>
        <time>2015-11-15T14:12:50Z</time>
      </trkpt>
      <trkpt lat="47.75329" lon="7.09016">
        <ele>381</ele>
        <time>2015-11-15T14:12:57Z</time>
      </trkpt>
      <trkpt lat="47.75329" lon="7.09016">
        <ele>334</ele>
        <time>2015-11-15T14:13:04Z</time>
      </trkpt>
      <trkpt lat="47.75329" lon="7.09016">
        <ele>334</ele>
        <time>2015-11-15T14:13:12Z</time>
      </trkpt>
      <trkpt lat="47.7533" lon="7.09038">
        <ele>374</ele>
        <time>2015-11-15T14:13:12Z</time>
      </trkpt>
      <trkpt lat="47.75308" lon="7.09057">
        <ele>381</ele>
        <time>2015-11-15T14:13:30Z</time>
      </trkpt>
      <trkpt lat="47.75302" lon="7.09082">
        <ele>381</ele>
        <time>2015-11-15T14:13:43Z</time>
      </trkpt>
      <trkpt lat="47.75296" lon="7.09104">
        <ele>382</ele>
        <time>2015-11-15T14:13:54Z</time>
      </trkpt>
      <trkpt lat="47.75293" lon="7.0911">
        <ele>381</ele>
        <time>2015-11-15T14:13:59Z</time>
      </trkpt>
      <trkpt lat="47.75293" lon="7.0911">
        <ele>334</ele>
        <time>2015-11-15T14:14:04Z</time>
      </trkpt>
      <trkpt lat="47.75293" lon="7.0911">
        <ele>334</ele>
        <time>2015-11-15T14:14:07Z</time>
      </trkpt>
      <trkpt lat="47.7529" lon="7.09124">
        <ele>383</ele>
        <time>2015-11-15T14:14:07Z</time>
      </trkpt>
      <trkpt lat="47.75281" lon="7.09134">
        <ele>384</ele>
        <time>2015-11-15T14:14:15Z</time>
      </trkpt>
      <trkpt lat="47.75271" lon="7.09147">
        <ele>380</ele>
        <time>2015-11-15T14:14:26Z</time>
      </trkpt>
      <trkpt lat="47.75261" lon="7.09161">
        <ele>378</ele>
        <time>2015-11-15T14:14:38Z</time>
      </trkpt>
      <trkpt lat="47.75247" lon="7.09166">
        <ele>378</ele>
        <time>2015-11-15T14:14:48Z</time>
      </trkpt>
      <trkpt lat="47.75229" lon="7.09172">
        <ele>380</ele>
        <time>2015-11-15T14:15:01Z</time>
      </trkpt>
      <trkpt lat="47.75215" lon="7.09176">
        <ele>379</ele>
        <time>2015-11-15T14:15:12Z</time>
      </trkpt>
      <trkpt lat="47.75197" lon="7.09181">
        <ele>377</ele>
        <time>2015-11-15T14:15:27Z</time>
      </trkpt>
      <trkpt lat="47.75175" lon="7.09193">
        <ele>382</ele>
        <time>2015-11-15T14:15:42Z</time>
      </trkpt>
      <trkpt lat="47.75159" lon="7.09205">
        <ele>384</ele>
        <time>2015-11-15T14:15:54Z</time>
      </trkpt>
      <trkpt lat="47.75146" lon="7.09217">
        <ele>384</ele>
        <time>2015-11-15T14:16:08Z</time>
      </trkpt>
      <trkpt lat="47.75132" lon="7.09232">
        <ele>384</ele>
        <time>2015-11-15T14:16:23Z</time>
      </trkpt>
      <trkpt lat="47.75113" lon="7.09235">
        <ele>382</ele>
        <time>2015-11-15T14:16:39Z</time>
      </trkpt>
      <trkpt lat="47.75092" lon="7.09231">
        <ele>381</ele>
        <time>2015-11-15T14:16:55Z</time>
      </trkpt>
      <trkpt lat="47.75072" lon="7.09224">
        <ele>380</ele>
        <time>2015-11-15T14:17:11Z</time>
      </trkpt>
      <trkpt lat="47.75054" lon="7.09214">
        <ele>380</ele>
        <time>2015-11-15T14:17:26Z</time>
      </trkpt>
      <trkpt lat="47.75041" lon="7.09208">
        <ele>380</ele>
        <time>2015-11-15T14:17:36Z</time>
      </trkpt>
      <trkpt lat="47.7503" lon="7.09202">
        <ele>379</ele>
        <time>2015-11-15T14:17:45Z</time>
      </trkpt>
      <trkpt lat="47.75014" lon="7.09192">
        <ele>377</ele>
        <time>2015-11-15T14:17:59Z</time>
      </trkpt>
      <trkpt lat="47.74995" lon="7.0918">
        <ele>378</ele>
        <time>2015-11-15T14:18:14Z</time>
      </trkpt>
      <trkpt lat="47.74976" lon="7.09168">
        <ele>378</ele>
        <time>2015-11-15T14:18:30Z</time>
      </trkpt>
      <trkpt lat="47.74958" lon="7.09163">
        <ele>378</ele>
        <time>2015-11-15T14:18:44Z</time>
      </trkpt>
      <trkpt lat="47.74934" lon="7.09167">
        <ele>381</ele>
        <time>2015-11-15T14:19:00Z</time>
      </trkpt>
      <trkpt lat="47.74924" lon="7.09171">
        <ele>381</ele>
        <time>2015-11-15T14:19:08Z</time>
      </trkpt>
      <trkpt lat="47.74906" lon="7.09182">
        <ele>382</ele>
        <time>2015-11-15T14:19:23Z</time>
      </trkpt>
      <trkpt lat="47.74895" lon="7.09193">
        <ele>382</ele>
        <time>2015-11-15T14:19:36Z</time>
      </trkpt>
      <trkpt lat="47.74895" lon="7.09193">
        <ele>333.8</ele>
        <time>2015-11-15T14:19:44Z</time>
      </trkpt>
      <trkpt lat="47.74895" lon="7.09193">
        <ele>333.8</ele>
        <time>2015-11-15T14:19:49Z</time>
      </trkpt>
    </trkseg>
  </trk>
</gpx>